Wetterdaten: Dienstag, 26.04.2022
Datum Zeit Temp. Aussen Temp. o. S. Temp +5cm Feuchte Auss Luftdruck Regen Sonnenschein Regendauer Solar Windben Empfang
26.04.2022 00:00 9,1 C 8,3 C 5,0 C 96 % 1014,4 hPa 0,0 l/m 0 min 0 min 0 W/m 6,4 km/h (2 Bft) 97,83 %
26.04.2022 00:02 9,1 C 8,3 C 5,0 C 96 % 1014,4 hPa 0,0 l/m 0 min 0 min 0 W/m 3,2 km/h (1 Bft) 95,35 %
26.04.2022 00:04 9,1 C 8,3 C 5,0 C 96 % 1014,4 hPa 0,0 l/m 0 min 0 min 0 W/m 9,7 km/h (2 Bft) 97,56 %
26.04.2022 00:08 9,1 C 8,3 C 5,0 C 96 % 1014,4 hPa 0,0 l/m 0 min 0 min 0 W/m 6,4 km/h (2 Bft) 97,09 %
26.04.2022 00:10 9,1 C 8,3 C 5,0 C 96 % 1014,4 hPa 0,0 l/m 0 min 0 min 0 W/m 6,4 km/h (2 Bft) 97,83 %
26.04.2022 00:12 9,1 C 7,8 C 5,0 C 97 % 1014,3 hPa 0,0 l/m 0 min 0 min 0 W/m 6,4 km/h (2 Bft) 97,87 %
26.04.2022 00:14 9,1 C 7,8 C 5,0 C 97 % 1014,3 hPa 0,0 l/m 0 min 0 min 0 W/m 9,7 km/h (2 Bft) 97,87 %
26.04.2022 00:16 8,9 C 7,8 C 5,0 C 96 % 1014,3 hPa 0,0 l/m 0 min 0 min 0 W/m 9,7 km/h (2 Bft) 97,87 %
26.04.2022 00:18 8,9 C 7,8 C 5,0 C 96 % 1014,4 hPa 0,0 l/m 0 min 0 min 0 W/m 12,9 km/h (3 Bft) 97,87 %
26.04.2022 00:20 8,8 C 7,8 C 5,0 C 96 % 1014,4 hPa 0,0 l/m 0 min 0 min 0 W/m 3,2 km/h (1 Bft) 95,74 %
26.04.2022 00:22 8,8 C 7,8 C 4,4 C 96 % 1014,3 hPa 0,0 l/m 0 min 0 min 0 W/m 9,7 km/h (2 Bft) 97,83 %
26.04.2022 00:24 8,8 C 7,8 C 4,4 C 96 % 1014,4 hPa 0,0 l/m 0 min 0 min 0 W/m 3,2 km/h (1 Bft) 95,74 %
26.04.2022 00:26 8,7 C 7,8 C 4,4 C 96 % 1014,3 hPa 0,0 l/m 0 min 0 min 0 W/m 9,7 km/h (2 Bft) 97,87 %
26.04.2022 00:28 8,7 C 7,8 C 4,4 C 96 % 1014,4 hPa 0,0 l/m 0 min 0 min 0 W/m 3,2 km/h (1 Bft) 97,87 %
26.04.2022 00:30 8,7 C 7,8 C 4,4 C 96 % 1014,4 hPa 0,0 l/m 0 min 0 min 0 W/m 6,4 km/h (2 Bft) 95,74 %
26.04.2022 00:32 8,7 C 7,8 C 4,4 C 96 % 1014,3 hPa 0,0 l/m 0 min 0 min 0 W/m 0,0 km/h (0 Bft) 95,83 %
26.04.2022 00:34 8,7 C 7,8 C 4,4 C 96 % 1014,4 hPa 0,0 l/m 0 min 0 min 0 W/m 0,0 km/h (0 Bft) 95,65 %
26.04.2022 00:36 8,7 C 7,2 C 4,4 C 96 % 1014,4 hPa 0,0 l/m 0 min 0 min 0 W/m 0,0 km/h (0 Bft) 93,62 %
26.04.2022 00:38 8,6 C 7,2 C 4,4 C 96 % 1014,3 hPa 0,0 l/m 0 min 0 min 0 W/m 6,4 km/h (2 Bft) 95,74 %
26.04.2022 00:40 8,6 C 7,2 C 4,4 C 96 % 1014,3 hPa 0,0 l/m 0 min 0 min 0 W/m 3,2 km/h (1 Bft) 95,74 %
26.04.2022 00:42 8,6 C 7,2 C 4,4 C 96 % 1014,3 hPa 0,0 l/m 0 min 0 min 0 W/m 3,2 km/h (1 Bft) 93,62 %
26.04.2022 00:44 8,6 C 7,2 C 4,4 C 96 % 1014,3 hPa 0,0 l/m 0 min 0 min 0 W/m 9,7 km/h (2 Bft) 95,65 %
26.04.2022 00:46 8,6 C 7,2 C 4,4 C 96 % 1014,3 hPa 0,0 l/m 0 min 0 min 0 W/m 6,4 km/h (2 Bft) 93,62 %
26.04.2022 00:48 8,5 C 7,2 C 4,4 C 96 % 1014,3 hPa 0,0 l/m 0 min 0 min 0 W/m 3,2 km/h (1 Bft) 93,62 %
26.04.2022 00:50 8,5 C 7,2 C 4,4 C 96 % 1014,3 hPa 0,0 l/m 0 min 0 min 0 W/m 3,2 km/h (1 Bft) 95,74 %
26.04.2022 00:52 8,5 C 7,2 C 4,4 C 96 % 1014,2 hPa 0,0 l/m 0 min 0 min 0 W/m 6,4 km/h (2 Bft) 93,62 %
26.04.2022 00:54 8,4 C 7,2 C 4,4 C 96 % 1014,3 hPa 0,0 l/m 0 min 0 min 0 W/m 3,2 km/h (1 Bft) 97,87 %
26.04.2022 00:56 8,4 C 7,2 C 4,4 C 96 % 1014,2 hPa 0,0 l/m 0 min 0 min 0 W/m 6,4 km/h (2 Bft) 93,48 %
26.04.2022 00:58 8,4 C 7,2 C 4,4 C 96 % 1014,3 hPa 0,0 l/m 0 min 0 min 0 W/m 6,4 km/h (2 Bft) 93,62 %
26.04.2022 01:00 8,4 C 7,2 C 4,4 C 96 % 1014,3 hPa 0,0 l/m 0 min 0 min 0 W/m 3,2 km/h (1 Bft) 97,87 %
26.04.2022 01:02 8,3 C 7,2 C 4,4 C 96 % 1014,4 hPa 0,0 l/m 0 min 0 min 0 W/m 3,2 km/h (1 Bft) 100,00 %
26.04.2022 01:04 8,3 C 7,2 C 4,4 C 96 % 1014,4 hPa 0,0 l/m 0 min 0 min 0 W/m 3,2 km/h (1 Bft) 97,87 %
26.04.2022 01:06 8,3 C 7,2 C 4,4 C 96 % 1014,4 hPa 0,0 l/m 0 min 0 min 0 W/m 3,2 km/h (1 Bft) 97,87 %
26.04.2022 01:08 8,3 C 7,2 C 4,4 C 96 % 1014,4 hPa 0,0 l/m 0 min 0 min 0 W/m 3,2 km/h (1 Bft) 100,00 %
26.04.2022 01:10 8,2 C 7,2 C 3,9 C 96 % 1014,4 hPa 0,0 l/m 0 min 0 min 0 W/m 3,2 km/h (1 Bft) 100,00 %
26.04.2022 01:12 8,2 C 7,2 C 3,9 C 96 % 1014,5 hPa 0,0 l/m 0 min 0 min 0 W/m 3,2 km/h (1 Bft) 100,00 %
26.04.2022 01:14 8,2 C 7,2 C 4,4 C 96 % 1014,5 hPa 0,0 l/m 0 min 0 min 0 W/m 6,4 km/h (2 Bft) 95,74 %
26.04.2022 01:16 8,1 C 7,2 C 3,9 C 96 % 1014,4 hPa 0,0 l/m 0 min 0 min 0 W/m 0,0 km/h (0 Bft) 97,87 %
26.04.2022 01:18 8,1 C 7,2 C 4,4 C 96 % 1014,4 hPa 0,0 l/m 0 min 0 min 0 W/m 3,2 km/h (1 Bft) 100,00 %
26.04.2022 01:20 8,1 C 7,2 C 3,9 C 96 % 1014,5 hPa 0,0 l/m 0 min 0 min 0 W/m 6,4 km/h (2 Bft) 97,87 %
26.04.2022 01:22 8,1 C 7,2 C 3,9 C 96 % 1014,4 hPa 0,0 l/m 0 min 0 min 0 W/m 3,2 km/h (1 Bft) 97,83 %
26.04.2022 01:24 8,1 C 7,2 C 4,4 C 96 % 1014,5 hPa 0,0 l/m 0 min 0 min 0 W/m 0,0 km/h (0 Bft) 97,87 %
26.04.2022 01:26 8,0 C 6,7 C 4,4 C 96 % 1014,5 hPa 0,0 l/m 0 min 0 min 0 W/m 0,0 km/h (0 Bft) 97,87 %
26.04.2022 01:28 8,0 C 6,7 C 4,4 C 96 % 1014,5 hPa 0,0 l/m 0 min 0 min 0 W/m 0,0 km/h (0 Bft) 97,87 %
26.04.2022 01:30 8,0 C 6,7 C 4,4 C 96 % 1014,5 hPa 0,0 l/m 0 min 0 min 0 W/m 3,2 km/h (1 Bft) 97,87 %
26.04.2022 01:32 8,0 C 6,7 C 3,9 C 96 % 1014,4 hPa 0,0 l/m 0 min 0 min 0 W/m 3,2 km/h (1 Bft) 97,92 %
26.04.2022 01:34 7,9 C 6,7 C 3,9 C 96 % 1014,5 hPa 0,0 l/m 0 min 0 min 0 W/m 0,0 km/h (0 Bft) 97,83 %
26.04.2022 01:36 7,9 C 6,7 C 3,9 C 96 % 1014,4 hPa 0,0 l/m 0 min 0 min 0 W/m 0,0 km/h (0 Bft) 97,87 %
26.04.2022 01:38 7,9 C 6,7 C 3,9 C 96 % 1014,5 hPa 0,0 l/m 0 min 0 min 0 W/m 0,0 km/h (0 Bft) 96,00 %
26.04.2022 01:40 7,9 C 6,7 C 3,9 C 96 % 1014,5 hPa 0,0 l/m 0 min 0 min 0 W/m 3,2 km/h (1 Bft) 97,87 %
26.04.2022 01:42 7,9 C 6,7 C 3,9 C 96 % 1014,5 hPa 0,0 l/m 0 min 0 min 0 W/m 3,2 km/h (1 Bft) 97,87 %
26.04.2022 01:44 7,9 C 7,2 C 3,9 C 96 % 1014,5 hPa 0,0 l/m 0 min 0 min 0 W/m 6,4 km/h (2 Bft) 97,83 %
26.04.2022 01:46 7,9 C 7,2 C 4,4 C 96 % 1014,5 hPa 0,0 l/m 0 min 0 min 0 W/m 3,2 km/h (1 Bft) 97,87 %
26.04.2022 01:51 7,9 C 7,2 C 4,4 C 96 % 1014,5 hPa 0,0 l/m 0 min 0 min 0 W/m 6,4 km/h (2 Bft) 98,57 %
26.04.2022 01:52 7,9 C 7,2 C 4,4 C 96 % 1014,5 hPa 0,0 l/m 0 min 0 min 0 W/m 3,2 km/h (1 Bft) 91,67 %
26.04.2022 01:54 7,9 C 7,2 C 4,4 C 96 % 1014,4 hPa 0,0 l/m 0 min 0 min 0 W/m 6,4 km/h (2 Bft) 97,87 %
26.04.2022 01:56 7,9 C 7,2 C 4,4 C 96 % 1014,4 hPa 0,0 l/m 0 min 0 min 0 W/m 6,4 km/h (2 Bft) 95,65 %
26.04.2022 01:58 7,9 C 7,2 C 4,4 C 96 % 1014,4 hPa 0,0 l/m 0 min 0 min 0 W/m 3,2 km/h (1 Bft) 97,87 %
26.04.2022 02:00 7,9 C 7,2 C 4,4 C 96 % 1014,4 hPa 0,0 l/m 0 min 0 min 0 W/m 9,7 km/h (2 Bft) 100,00 %
26.04.2022 02:02 7,9 C 7,2 C 4,4 C 96 % 1014,4 hPa 0,0 l/m 0 min 0 min 0 W/m 9,7 km/h (2 Bft) 100,00 %
26.04.2022 02:04 7,9 C 7,2 C 4,4 C 96 % 1014,4 hPa 0,0 l/m 0 min 0 min 0 W/m 3,2 km/h (1 Bft) 100,00 %
26.04.2022 02:06 8,0 C 7,2 C 4,4 C 96 % 1014,4 hPa 0,0 l/m 0 min 0 min 0 W/m 3,2 km/h (1 Bft) 100,00 %
26.04.2022 02:08 8,0 C 7,2 C 4,4 C 97 % 1014,4 hPa 0,0 l/m 0 min 0 min 0 W/m 6,4 km/h (2 Bft) 100,00 %
26.04.2022 02:10 8,1 C 7,2 C 4,4 C 97 % 1014,4 hPa 0,0 l/m 0 min 0 min 0 W/m 3,2 km/h (1 Bft) 100,00 %
26.04.2022 02:12 8,1 C 7,2 C 4,4 C 97 % 1014,4 hPa 0,0 l/m 0 min 0 min 0 W/m 3,2 km/h (1 Bft) 97,87 %
26.04.2022 02:14 8,1 C 7,2 C 4,4 C 97 % 1014,4 hPa 0,0 l/m 0 min 0 min 0 W/m 3,2 km/h (1 Bft) 100,00 %
26.04.2022 02:16 8,1 C 7,2 C 4,4 C 97 % 1014,5 hPa 0,0 l/m 0 min 0 min 0 W/m 3,2 km/h (1 Bft) 100,00 %
26.04.2022 02:18 8,1 C 7,2 C 4,4 C 97 % 1014,5 hPa 0,0 l/m 0 min 0 min 0 W/m 3,2 km/h (1 Bft) 95,74 %
26.04.2022 02:20 8,1 C 7,2 C 4,4 C 97 % 1014,5 hPa 0,0 l/m 0 min 0 min 0 W/m 0,0 km/h (0 Bft) 97,87 %
26.04.2022 02:22 8,2 C 7,8 C 4,4 C 97 % 1014,4 hPa 0,0 l/m 0 min 0 min 0 W/m 3,2 km/h (1 Bft) 95,74 %
26.04.2022 02:24 8,2 C 7,8 C 4,4 C 97 % 1014,5 hPa 0,0 l/m 0 min 0 min 0 W/m 0,0 km/h (0 Bft) 97,87 %
26.04.2022 02:26 8,2 C 7,8 C 4,4 C 97 % 1014,5 hPa 0,0 l/m 0 min 0 min 0 W/m 0,0 km/h (0 Bft) 97,87 %
26.04.2022 02:28 8,3 C 7,8 C 4,4 C 97 % 1014,5 hPa 0,0 l/m 0 min 0 min 0 W/m 0,0 km/h (0 Bft) 95,65 %
26.04.2022 02:30 8,3 C 7,8 C 5,0 C 97 % 1014,5 hPa 0,0 l/m 0 min 0 min 0 W/m 3,2 km/h (1 Bft) 97,87 %
26.04.2022 02:32 8,3 C 7,8 C 5,0 C 97 % 1014,5 hPa 0,0 l/m 0 min 0 min 0 W/m 0,0 km/h (0 Bft) 97,22 %
26.04.2022 02:34 8,3 C 7,8 C 5,0 C 97 % 1014,5 hPa 0,0 l/m 0 min 0 min 0 W/m 6,4 km/h (2 Bft) 95,74 %
26.04.2022 02:36 8,4 C 7,8 C 5,0 C 97 % 1014,5 hPa 0,0 l/m 0 min 0 min 0 W/m 9,7 km/h (2 Bft) 97,87 %
26.04.2022 02:38 8,4 C 7,8 C 5,0 C 97 % 1014,5 hPa 0,0 l/m 0 min 2 min 0 W/m 6,4 km/h (2 Bft) 97,87 %
26.04.2022 02:40 8,4 C 7,8 C 5,0 C 97 % 1014,5 hPa 0,0 l/m 0 min 0 min 0 W/m 9,7 km/h (2 Bft) 97,87 %
26.04.2022 02:42 8,4 C 7,8 C 5,0 C 97 % 1014,4 hPa 0,0 l/m 0 min 0 min 0 W/m 6,4 km/h (2 Bft) 97,87 %
26.04.2022 02:44 8,4 C 7,8 C 5,0 C 97 % 1014,5 hPa 0,0 l/m 0 min 0 min 0 W/m 3,2 km/h (1 Bft) 97,83 %
26.04.2022 02:46 8,4 C 7,8 C 5,0 C 97 % 1014,5 hPa 0,0 l/m 0 min 0 min 0 W/m 3,2 km/h (1 Bft) 97,87 %
26.04.2022 02:48 8,5 C 7,8 C 5,0 C 97 % 1014,4 hPa 0,0 l/m 0 min 0 min 0 W/m 3,2 km/h (1 Bft) 97,87 %
26.04.2022 02:50 8,5 C 7,8 C 5,0 C 97 % 1014,4 hPa 0,0 l/m 0 min 0 min 0 W/m 3,2 km/h (1 Bft) 100,00 %
26.04.2022 02:52 8,5 C 7,8 C 5,0 C 97 % 1014,4 hPa 0,0 l/m 0 min 0 min 0 W/m 3,2 km/h (1 Bft) 100,00 %
26.04.2022 02:54 8,6 C 7,8 C 5,0 C 97 % 1014,4 hPa 0,0 l/m 0 min 0 min 0 W/m 6,4 km/h (2 Bft) 97,87 %
26.04.2022 02:56 8,6 C 7,8 C 5,0 C 97 % 1014,4 hPa 0,0 l/m 0 min 0 min 0 W/m 6,4 km/h (2 Bft) 100,00 %
26.04.2022 02:58 8,6 C 7,8 C 5,0 C 97 % 1014,4 hPa 0,0 l/m 0 min 0 min 0 W/m 6,4 km/h (2 Bft) 100,00 %
26.04.2022 03:00 8,6 C 7,8 C 5,0 C 97 % 1014,5 hPa 0,0 l/m 0 min 0 min 0 W/m 6,4 km/h (2 Bft) 100,00 %
26.04.2022 03:02 8,6 C 7,8 C 5,0 C 97 % 1014,5 hPa 0,0 l/m 0 min 2 min 0 W/m 6,4 km/h (2 Bft) 95,83 %
26.04.2022 03:04 8,6 C 7,8 C 5,0 C 97 % 1014,4 hPa 0,0 l/m 0 min 2 min 0 W/m 3,2 km/h (1 Bft) 100,00 %
26.04.2022 03:06 8,6 C 7,8 C 5,0 C 97 % 1014,5 hPa 0,0 l/m 0 min 2 min 0 W/m 3,2 km/h (1 Bft) 100,00 %
26.04.2022 03:08 8,6 C 7,8 C 5,0 C 97 % 1014,5 hPa 0,2 l/m 0 min 2 min 0 W/m 0,0 km/h (0 Bft) 100,00 %
26.04.2022 03:10 8,6 C 7,8 C 5,0 C 97 % 1014,4 hPa 0,0 l/m 0 min 2 min 0 W/m 3,2 km/h (1 Bft) 100,00 %
26.04.2022 03:12 8,7 C 7,8 C 5,0 C 97 % 1014,5 hPa 0,0 l/m 0 min 2 min 0 W/m 3,2 km/h (1 Bft) 100,00 %
26.04.2022 03:14 8,7 C 7,8 C 5,0 C 97 % 1014,5 hPa 0,0 l/m 0 min 2 min 0 W/m 3,2 km/h (1 Bft) 100,00 %
26.04.2022 03:16 8,7 C 7,8 C 5,0 C 97 % 1014,5 hPa 0,2 l/m 0 min 2 min 0 W/m 3,2 km/h (1 Bft) 97,87 %
26.04.2022 03:18 8,7 C 7,8 C 5,0 C 97 % 1014,5 hPa 0,0 l/m 0 min 2 min 0 W/m 6,4 km/h (2 Bft) 95,65 %
26.04.2022 03:20 8,7 C 7,8 C 5,0 C 97 % 1014,5 hPa 0,0 l/m 0 min 2 min 0 W/m 9,7 km/h (2 Bft) 97,87 %
26.04.2022 03:22 8,7 C 7,8 C 5,0 C 97 % 1014,4 hPa 0,0 l/m 0 min 2 min 0 W/m 6,4 km/h (2 Bft) 95,74 %
26.04.2022 03:24 8,7 C 7,8 C 5,0 C 97 % 1014,5 hPa 0,2 l/m 0 min 2 min 0 W/m 6,4 km/h (2 Bft) 97,87 %
26.04.2022 03:26 8,7 C 7,8 C 5,0 C 97 % 1014,5 hPa 0,0 l/m 0 min 2 min 0 W/m 6,4 km/h (2 Bft) 97,87 %
26.04.2022 03:28 8,7 C 7,8 C 5,0 C 97 % 1014,5 hPa 0,0 l/m 0 min 2 min 0 W/m 6,4 km/h (2 Bft) 97,87 %
26.04.2022 03:30 8,7 C 7,8 C 5,0 C 97 % 1014,5 hPa 0,0 l/m 0 min 2 min 0 W/m 0,0 km/h (0 Bft) 97,83 %
26.04.2022 03:32 8,7 C 7,8 C 5,0 C 97 % 1014,5 hPa 0,2 l/m 0 min 2 min 0 W/m 3,2 km/h (1 Bft) 95,74 %
26.04.2022 03:34 8,7 C 7,8 C 5,0 C 97 % 1014,5 hPa 0,0 l/m 0 min 2 min 0 W/m 6,4 km/h (2 Bft) 95,74 %
26.04.2022 03:36 8,7 C 7,8 C 5,0 C 97 % 1014,5 hPa 0,0 l/m 0 min 2 min 0 W/m 9,7 km/h (2 Bft) 97,87 %
26.04.2022 03:38 8,7 C 7,8 C 5,0 C 97 % 1014,5 hPa 0,0 l/m 0 min 2 min 0 W/m 9,7 km/h (2 Bft) 96,00 %
26.04.2022 03:40 8,7 C 7,8 C 5,0 C 97 % 1014,5 hPa 0,0 l/m 0 min 2 min 0 W/m 9,7 km/h (2 Bft) 97,83 %
26.04.2022 03:42 8,7 C 7,8 C 5,0 C 97 % 1014,5 hPa 0,2 l/m 0 min 2 min 0 W/m 6,4 km/h (2 Bft) 95,74 %
26.04.2022 03:44 8,7 C 7,8 C 5,0 C 97 % 1014,5 hPa 0,0 l/m 0 min 2 min 0 W/m 6,4 km/h (2 Bft) 95,74 %
26.04.2022 03:46 8,7 C 7,8 C 5,0 C 97 % 1014,5 hPa 0,0 l/m 0 min 2 min 0 W/m 9,7 km/h (2 Bft) 95,74 %
26.04.2022 03:48 8,8 C 7,8 C 5,0 C 97 % 1014,5 hPa 0,2 l/m 0 min 2 min 0 W/m 9,7 km/h (2 Bft) 95,74 %
26.04.2022 03:50 8,7 C 7,8 C 5,0 C 97 % 1014,5 hPa 0,0 l/m 0 min 2 min 0 W/m 12,9 km/h (3 Bft) 95,74 %
26.04.2022 03:52 8,8 C 7,8 C 5,0 C 97 % 1014,5 hPa 0,0 l/m 0 min 2 min 0 W/m 9,7 km/h (2 Bft) 93,48 %
26.04.2022 03:54 8,8 C 7,8 C 5,0 C 97 % 1014,5 hPa 0,0 l/m 0 min 2 min 0 W/m 9,7 km/h (2 Bft) 95,74 %
26.04.2022 03:56 8,8 C 7,8 C 5,0 C 97 % 1014,5 hPa 0,2 l/m 0 min 2 min 0 W/m 6,4 km/h (2 Bft) 93,62 %
26.04.2022 03:58 8,7 C 7,8 C 5,0 C 97 % 1014,5 hPa 0,0 l/m 0 min 2 min 0 W/m 6,4 km/h (2 Bft) 97,87 %
26.04.2022 04:00 8,8 C 7,8 C 5,0 C 97 % 1014,5 hPa 0,0 l/m 0 min 2 min 0 W/m 3,2 km/h (1 Bft) 95,74 %
26.04.2022 04:02 8,8 C 7,8 C 5,0 C 97 % 1014,5 hPa 0,0 l/m 0 min 2 min 0 W/m 0,0 km/h (0 Bft) 100,00 %
26.04.2022 04:04 8,8 C 7,8 C 5,0 C 97 % 1014,5 hPa 0,0 l/m 0 min 2 min 0 W/m 6,4 km/h (2 Bft) 100,00 %
26.04.2022 04:06 8,8 C 7,8 C 5,0 C 98 % 1014,5 hPa 0,0 l/m 0 min 2 min 0 W/m 6,4 km/h (2 Bft) 95,12 %
26.04.2022 04:08 8,8 C 7,8 C 5,0 C 98 % 1014,5 hPa 0,0 l/m 0 min 2 min 0 W/m 6,4 km/h (2 Bft) 100,00 %
26.04.2022 04:10 8,8 C 7,8 C 5,0 C 98 % 1014,5 hPa 0,2 l/m 0 min 2 min 0 W/m 6,4 km/h (2 Bft) 95,74 %
26.04.2022 04:12 8,8 C 7,8 C 5,0 C 98 % 1014,5 hPa 0,0 l/m 0 min 2 min 0 W/m 6,4 km/h (2 Bft) 93,62 %
26.04.2022 04:14 8,7 C 7,8 C 5,0 C 98 % 1014,5 hPa 0,0 l/m 0 min 2 min 0 W/m 6,4 km/h (2 Bft) 95,74 %
26.04.2022 04:16 8,7 C 7,8 C 5,0 C 98 % 1014,5 hPa 0,2 l/m 0 min 2 min 0 W/m 9,7 km/h (2 Bft) 96,15 %
26.04.2022 04:18 8,7 C 7,8 C 5,0 C 98 % 1014,5 hPa 0,2 l/m 0 min 2 min 0 W/m 6,4 km/h (2 Bft) 95,74 %
26.04.2022 04:20 8,7 C 7,8 C 5,0 C 98 % 1014,5 hPa 0,0 l/m 0 min 2 min 0 W/m 6,4 km/h (2 Bft) 97,56 %
26.04.2022 04:22 8,7 C 7,8 C 5,0 C 98 % 1014,5 hPa 0,2 l/m 0 min 2 min 0 W/m 3,2 km/h (1 Bft) 93,62 %
26.04.2022 04:24 8,7 C 7,8 C 5,0 C 98 % 1014,6 hPa 0,0 l/m 0 min 2 min 0 W/m 3,2 km/h (1 Bft) 95,74 %
26.04.2022 04:26 8,7 C 7,8 C 5,0 C 98 % 1014,5 hPa 0,0 l/m 0 min 0 min 0 W/m 3,2 km/h (1 Bft) 95,74 %
26.04.2022 04:28 8,7 C 7,8 C 5,0 C 98 % 1014,5 hPa 0,0 l/m 0 min 2 min 0 W/m 9,7 km/h (2 Bft) 97,83 %
26.04.2022 04:30 8,7 C 7,8 C 5,0 C 98 % 1014,5 hPa 0,0 l/m 0 min 2 min 0 W/m 12,9 km/h (3 Bft) 98,11 %
26.04.2022 04:32 8,6 C 7,8 C 5,0 C 98 % 1014,5 hPa 0,2 l/m 0 min 2 min 0 W/m 9,7 km/h (2 Bft) 97,92 %
26.04.2022 04:34 8,6 C 7,8 C 5,0 C 98 % 1014,5 hPa 0,2 l/m 0 min 2 min 0 W/m 6,4 km/h (2 Bft) 93,62 %
26.04.2022 04:36 8,6 C 7,8 C 5,0 C 98 % 1014,5 hPa 0,0 l/m 0 min 2 min 0 W/m 6,4 km/h (2 Bft) 97,83 %
26.04.2022 04:38 8,6 C 7,8 C 5,0 C 98 % 1014,5 hPa 0,2 l/m 0 min 2 min 0 W/m 16,1 km/h (3 Bft) 97,44 %
26.04.2022 04:40 8,6 C 7,8 C 5,0 C 98 % 1014,5 hPa 0,0 l/m 0 min 2 min 0 W/m 6,4 km/h (2 Bft) 97,83 %
26.04.2022 04:42 8,6 C 7,8 C 5,0 C 98 % 1014,5 hPa 0,2 l/m 0 min 2 min 0 W/m 3,2 km/h (1 Bft) 100,00 %
26.04.2022 04:44 8,6 C 7,8 C 5,0 C 98 % 1014,5 hPa 0,0 l/m 0 min 2 min 0 W/m 9,7 km/h (2 Bft) 100,00 %
26.04.2022 04:46 8,5 C 7,8 C 5,0 C 98 % 1014,5 hPa 0,2 l/m 0 min 2 min 0 W/m 6,4 km/h (2 Bft) 100,00 %
26.04.2022 04:48 8,5 C 7,8 C 5,0 C 98 % 1014,5 hPa 0,2 l/m 0 min 2 min 0 W/m 12,9 km/h (3 Bft) 100,00 %
26.04.2022 04:50 8,4 C 7,8 C 5,0 C 98 % 1014,5 hPa 0,0 l/m 0 min 2 min 0 W/m 6,4 km/h (2 Bft) 100,00 %
26.04.2022 04:52 8,4 C 7,2 C 5,0 C 98 % 1014,5 hPa 0,0 l/m 0 min 2 min 0 W/m 9,7 km/h (2 Bft) 97,83 %
26.04.2022 04:54 8,4 C 7,8 C 5,0 C 98 % 1014,6 hPa 0,0 l/m 0 min 2 min 0 W/m 3,2 km/h (1 Bft) 100,00 %
26.04.2022 04:56 8,4 C 7,8 C 5,0 C 98 % 1014,6 hPa 0,0 l/m 0 min 0 min 0 W/m 6,4 km/h (2 Bft) 97,87 %
26.04.2022 04:58 8,4 C 7,2 C 5,0 C 98 % 1014,5 hPa 0,0 l/m 0 min 0 min 0 W/m 6,4 km/h (2 Bft) 97,87 %
26.04.2022 05:00 8,4 C 7,8 C 5,0 C 98 % 1014,6 hPa 0,0 l/m 0 min 2 min 0 W/m 3,2 km/h (1 Bft) 100,00 %
26.04.2022 05:02 8,4 C 7,8 C 5,0 C 98 % 1014,6 hPa 0,0 l/m 0 min 2 min 0 W/m 6,4 km/h (2 Bft) 100,00 %
26.04.2022 05:04 8,4 C 7,2 C 5,0 C 98 % 1014,6 hPa 0,2 l/m 0 min 2 min 0 W/m 6,4 km/h (2 Bft) 100,00 %
26.04.2022 05:06 8,3 C 7,2 C 5,0 C 98 % 1014,5 hPa 0,0 l/m 0 min 2 min 0 W/m 9,7 km/h (2 Bft) 100,00 %
26.04.2022 05:08 8,3 C 7,2 C 5,0 C 98 % 1014,5 hPa 0,0 l/m 0 min 2 min 0 W/m 9,7 km/h (2 Bft) 100,00 %
26.04.2022 05:10 8,3 C 7,2 C 5,0 C 98 % 1014,5 hPa 0,0 l/m 0 min 2 min 0 W/m 6,4 km/h (2 Bft) 97,87 %
26.04.2022 05:12 8,3 C 7,2 C 5,0 C 98 % 1014,5 hPa 0,0 l/m 0 min 2 min 0 W/m 6,4 km/h (2 Bft) 100,00 %
26.04.2022 05:14 8,3 C 7,2 C 5,0 C 98 % 1014,5 hPa 0,2 l/m 0 min 2 min 0 W/m 3,2 km/h (1 Bft) 100,00 %
26.04.2022 05:16 8,3 C 7,2 C 5,0 C 98 % 1014,5 hPa 0,2 l/m 0 min 2 min 0 W/m 6,4 km/h (2 Bft) 100,00 %
26.04.2022 05:18 8,3 C 7,2 C 5,0 C 98 % 1014,5 hPa 0,2 l/m 0 min 2 min 0 W/m 6,4 km/h (2 Bft) 97,87 %
26.04.2022 05:20 8,3 C 7,2 C 5,0 C 98 % 1014,5 hPa 0,0 l/m 0 min 2 min 0 W/m 12,9 km/h (3 Bft) 100,00 %
26.04.2022 05:22 8,2 C 7,2 C 5,0 C 98 % 1014,6 hPa 0,0 l/m 0 min 2 min 0 W/m 16,1 km/h (3 Bft) 100,00 %
26.04.2022 05:24 8,2 C 7,2 C 4,4 C 98 % 1014,6 hPa 0,0 l/m 0 min 2 min 0 W/m 12,9 km/h (3 Bft) 100,00 %
26.04.2022 05:26 8,2 C 7,2 C 4,4 C 98 % 1014,6 hPa 0,2 l/m 0 min 2 min 0 W/m 9,7 km/h (2 Bft) 100,00 %
26.04.2022 05:28 8,2 C 7,2 C 4,4 C 98 % 1014,6 hPa 0,0 l/m 0 min 2 min 0 W/m 12,9 km/h (3 Bft) 100,00 %
26.04.2022 05:30 8,1 C 7,2 C 4,4 C 98 % 1014,6 hPa 0,0 l/m 0 min 2 min 0 W/m 6,4 km/h (2 Bft) 100,00 %
26.04.2022 05:32 8,1 C 7,2 C 4,4 C 98 % 1014,7 hPa 0,0 l/m 0 min 2 min 0 W/m 6,4 km/h (2 Bft) 100,00 %
26.04.2022 05:34 8,1 C 7,2 C 4,4 C 98 % 1014,7 hPa 0,0 l/m 0 min 0 min 0 W/m 6,4 km/h (2 Bft) 100,00 %
26.04.2022 05:36 8,1 C 7,2 C 4,4 C 98 % 1014,7 hPa 0,0 l/m 0 min 0 min 0 W/m 3,2 km/h (1 Bft) 97,87 %
26.04.2022 05:38 8,1 C 7,2 C 4,4 C 98 % 1014,8 hPa 0,0 l/m 0 min 0 min 0 W/m 9,7 km/h (2 Bft) 100,00 %
26.04.2022 05:40 8,1 C 7,2 C 4,4 C 98 % 1014,7 hPa 0,0 l/m 0 min 0 min 0 W/m 6,4 km/h (2 Bft) 100,00 %
26.04.2022 05:42 8,0 C 7,2 C 4,4 C 98 % 1014,8 hPa 0,0 l/m 0 min 0 min 0 W/m 9,7 km/h (2 Bft) 100,00 %
26.04.2022 05:44 8,0 C 7,2 C 4,4 C 98 % 1014,8 hPa 0,0 l/m 0 min 0 min 0 W/m 6,4 km/h (2 Bft) 97,87 %
26.04.2022 05:46 7,9 C 7,2 C 4,4 C 98 % 1014,8 hPa 0,0 l/m 0 min 0 min 0 W/m 12,9 km/h (3 Bft) 100,00 %
26.04.2022 05:48 7,9 C 7,2 C 4,4 C 98 % 1014,8 hPa 0,0 l/m 0 min 0 min 0 W/m 12,9 km/h (3 Bft) 97,83 %
26.04.2022 05:50 7,8 C 6,7 C 4,4 C 98 % 1014,7 hPa 0,0 l/m 0 min 0 min 0 W/m 12,9 km/h (3 Bft) 97,87 %
26.04.2022 05:52 7,8 C 6,7 C 4,4 C 98 % 1014,7 hPa 0,0 l/m 0 min 0 min 0 W/m 16,1 km/h (3 Bft) 100,00 %
26.04.2022 05:54 7,8 C 6,7 C 4,4 C 98 % 1014,8 hPa 0,0 l/m 0 min 0 min 0 W/m 9,7 km/h (2 Bft) 100,00 %
26.04.2022 05:56 7,7 C 6,7 C 4,4 C 98 % 1014,8 hPa 0,0 l/m 0 min 0 min 0 W/m 9,7 km/h (2 Bft) 97,87 %
26.04.2022 05:58 7,7 C 6,7 C 4,4 C 98 % 1014,8 hPa 0,0 l/m 0 min 0 min 0 W/m 6,4 km/h (2 Bft) 97,87 %
26.04.2022 06:00 7,7 C 6,7 C 4,4 C 98 % 1014,8 hPa 0,0 l/m 0 min 0 min 0 W/m 9,7 km/h (2 Bft) 97,83 %
26.04.2022 06:02 7,6 C 6,7 C 4,4 C 98 % 1014,8 hPa 0,0 l/m 0 min 0 min 0 W/m 12,9 km/h (3 Bft) 97,87 %
26.04.2022 06:04 7,6 C 6,7 C 3,9 C 98 % 1014,8 hPa 0,0 l/m 0 min 0 min 0 W/m 19,3 km/h (3 Bft) 97,87 %
26.04.2022 06:08 7,4 C 6,7 C 3,9 C 98 % 1014,8 hPa 0,0 l/m 0 min 0 min 0 W/m 19,3 km/h (3 Bft) 75,53 %
26.04.2022 06:10 7,4 C 6,7 C 3,9 C 98 % 1014,8 hPa 0,0 l/m 0 min 0 min 0 W/m 9,7 km/h (2 Bft) 97,87 %
26.04.2022 06:12 7,4 C 6,7 C 3,9 C 98 % 1014,8 hPa 0,0 l/m 0 min 0 min 0 W/m 12,9 km/h (3 Bft) 97,83 %
26.04.2022 06:14 7,3 C 6,7 C 3,9 C 98 % 1014,9 hPa 0,0 l/m 0 min 0 min 0 W/m 9,7 km/h (2 Bft) 95,74 %
26.04.2022 06:16 7,3 C 6,7 C 3,9 C 98 % 1014,9 hPa 0,0 l/m 0 min 0 min 0 W/m 16,1 km/h (3 Bft) 95,74 %
26.04.2022 06:18 7,3 C 6,7 C 3,9 C 98 % 1014,9 hPa 0,0 l/m 0 min 0 min 0 W/m 12,9 km/h (3 Bft) 95,74 %
26.04.2022 06:20 7,3 C 6,7 C 3,9 C 98 % 1014,9 hPa 0,0 l/m 0 min 0 min 0 W/m 19,3 km/h (3 Bft) 93,62 %
26.04.2022 06:22 7,2 C 6,7 C 3,9 C 98 % 1014,9 hPa 0,0 l/m 0 min 0 min 0 W/m 12,9 km/h (3 Bft) 93,62 %
26.04.2022 06:24 7,2 C 6,7 C 3,9 C 98 % 1014,9 hPa 0,0 l/m 0 min 0 min 0 W/m 19,3 km/h (3 Bft) 91,30 %
26.04.2022 06:26 7,2 C 6,7 C 3,9 C 98 % 1015,0 hPa 0,0 l/m 0 min 0 min 0 W/m 12,9 km/h (3 Bft) 95,74 %
26.04.2022 06:28 7,1 C 6,7 C 3,3 C 98 % 1015,0 hPa 0,0 l/m 0 min 0 min 0 W/m 16,1 km/h (3 Bft) 93,62 %
26.04.2022 06:30 7,1 C 6,7 C 3,3 C 97 % 1015,0 hPa 0,0 l/m 0 min 0 min 0 W/m 9,7 km/h (2 Bft) 93,62 %
26.04.2022 06:32 7,1 C 6,1 C 3,3 C 97 % 1015,0 hPa 0,0 l/m 0 min 0 min 0 W/m 16,1 km/h (3 Bft) 91,49 %
26.04.2022 06:34 7,0 C 6,1 C 3,3 C 97 % 1015,0 hPa 0,0 l/m 0 min 0 min 0 W/m 22,5 km/h (4 Bft) 97,87 %
26.04.2022 06:36 7,0 C 6,1 C 3,3 C 97 % 1015,1 hPa 0,0 l/m 0 min 0 min 0 W/m 16,1 km/h (3 Bft) 95,65 %
26.04.2022 06:38 6,9 C 6,1 C 3,3 C 97 % 1015,1 hPa 0,0 l/m 0 min 0 min 4 W/m 9,7 km/h (2 Bft) 93,88 %
26.04.2022 06:40 6,9 C 6,1 C 3,3 C 97 % 1015,1 hPa 0,0 l/m 0 min 0 min 5 W/m 9,7 km/h (2 Bft) 95,74 %
26.04.2022 06:42 6,9 C 6,1 C 3,3 C 97 % 1015,1 hPa 0,0 l/m 0 min 0 min 5 W/m 16,1 km/h (3 Bft) 95,74 %
26.04.2022 06:44 6,9 C 6,1 C 3,3 C 97 % 1015,2 hPa 0,0 l/m 0 min 0 min 5 W/m 6,4 km/h (2 Bft) 95,74 %
26.04.2022 06:46 6,9 C 6,1 C 3,3 C 97 % 1015,2 hPa 0,0 l/m 0 min 0 min 5 W/m 12,9 km/h (3 Bft) 95,65 %
26.04.2022 06:48 6,9 C 6,1 C 3,3 C 97 % 1015,3 hPa 0,0 l/m 0 min 0 min 5 W/m 12,9 km/h (3 Bft) 93,62 %
26.04.2022 06:50 6,9 C 6,1 C 3,3 C 97 % 1015,3 hPa 0,0 l/m 0 min 0 min 5 W/m 9,7 km/h (2 Bft) 95,74 %
26.04.2022 06:52 6,9 C 6,1 C 3,3 C 97 % 1015,4 hPa 0,0 l/m 0 min 0 min 7 W/m 12,9 km/h (3 Bft) 95,74 %
26.04.2022 06:54 6,9 C 6,1 C 3,3 C 97 % 1015,4 hPa 0,0 l/m 0 min 0 min 7 W/m 19,3 km/h (3 Bft) 97,87 %
26.04.2022 06:56 6,9 C 6,1 C 3,3 C 97 % 1015,4 hPa 0,0 l/m 0 min 0 min 9 W/m 19,3 km/h (3 Bft) 97,87 %
26.04.2022 06:58 6,9 C 6,1 C 3,3 C 97 % 1015,5 hPa 0,0 l/m 0 min 0 min 10 W/m 12,9 km/h (3 Bft) 97,83 %
26.04.2022 07:00 6,9 C 6,1 C 3,3 C 97 % 1015,5 hPa 0,0 l/m 0 min 0 min 11 W/m 12,9 km/h (3 Bft) 97,87 %
26.04.2022 07:02 6,9 C 6,1 C 3,3 C 97 % 1015,5 hPa 0,0 l/m 0 min 0 min 11 W/m 12,9 km/h (3 Bft) 100,00 %
26.04.2022 07:04 6,9 C 6,1 C 3,3 C 97 % 1015,5 hPa 0,0 l/m 0 min 0 min 12 W/m 12,9 km/h (3 Bft) 97,87 %
26.04.2022 07:06 6,9 C 6,1 C 3,3 C 97 % 1015,5 hPa 0,0 l/m 0 min 0 min 12 W/m 6,4 km/h (2 Bft) 95,74 %
26.04.2022 07:08 6,9 C 6,1 C 3,9 C 97 % 1015,6 hPa 0,0 l/m 0 min 0 min 12 W/m 9,7 km/h (2 Bft) 97,87 %
26.04.2022 07:10 6,9 C 6,1 C 3,3 C 97 % 1015,6 hPa 0,0 l/m 0 min 0 min 12 W/m 6,4 km/h (2 Bft) 97,83 %
26.04.2022 07:12 6,9 C 6,1 C 3,3 C 97 % 1015,6 hPa 0,0 l/m 0 min 0 min 12 W/m 9,7 km/h (2 Bft) 97,87 %
26.04.2022 07:14 6,9 C 6,1 C 3,3 C 97 % 1015,6 hPa 0,0 l/m 0 min 0 min 14 W/m 12,9 km/h (3 Bft) 97,87 %
26.04.2022 07:16 6,9 C 6,1 C 3,3 C 97 % 1015,7 hPa 0,0 l/m 0 min 0 min 16 W/m 12,9 km/h (3 Bft) 100,00 %
26.04.2022 07:18 6,9 C 6,1 C 3,3 C 97 % 1015,7 hPa 0,0 l/m 0 min 0 min 16 W/m 16,1 km/h (3 Bft) 100,00 %
26.04.2022 07:20 6,9 C 6,1 C 3,3 C 97 % 1015,7 hPa 0,0 l/m 0 min 0 min 16 W/m 9,7 km/h (2 Bft) 97,87 %
26.04.2022 07:22 6,9 C 6,1 C 3,3 C 97 % 1015,7 hPa 0,0 l/m 0 min 0 min 16 W/m 19,3 km/h (3 Bft) 97,83 %
26.04.2022 07:24 6,9 C 6,1 C 3,3 C 97 % 1015,7 hPa 0,0 l/m 0 min 0 min 16 W/m 12,9 km/h (3 Bft) 100,00 %
26.04.2022 07:26 6,9 C 6,1 C 3,3 C 97 % 1015,7 hPa 0,0 l/m 0 min 0 min 16 W/m 9,7 km/h (2 Bft) 47,37 %
26.04.2022 07:28 6,9 C 6,1 C 3,3 C 97 % 1015,7 hPa 0,0 l/m 0 min 0 min 17 W/m 16,1 km/h (3 Bft) 97,87 %
26.04.2022 07:30 6,8 C 6,1 C 3,3 C 97 % 1015,7 hPa 0,0 l/m 0 min 0 min 19 W/m 12,9 km/h (3 Bft) 97,87 %
26.04.2022 07:32 6,8 C 6,1 C 3,3 C 97 % 1015,7 hPa 0,0 l/m 0 min 0 min 22 W/m 19,3 km/h (3 Bft) 100,00 %
26.04.2022 07:34 6,8 C 6,1 C 3,3 C 97 % 1015,7 hPa 0,0 l/m 0 min 0 min 23 W/m 19,3 km/h (3 Bft) 97,87 %
26.04.2022 07:36 6,8 C 6,7 C 3,3 C 97 % 1015,7 hPa 0,0 l/m 0 min 0 min 26 W/m 16,1 km/h (3 Bft) 100,00 %
26.04.2022 07:38 6,8 C 6,7 C 3,3 C 97 % 1015,7 hPa 0,0 l/m 0 min 0 min 31 W/m 12,9 km/h (3 Bft) 100,00 %
26.04.2022 07:40 6,8 C 6,7 C 3,3 C 97 % 1015,7 hPa 0,0 l/m 0 min 0 min 33 W/m 16,1 km/h (3 Bft) 100,00 %
26.04.2022 07:42 6,8 C 6,7 C 3,3 C 97 % 1015,7 hPa 0,0 l/m 0 min 0 min 35 W/m 9,7 km/h (2 Bft) 97,87 %
26.04.2022 07:44 6,8 C 6,7 C 3,3 C 97 % 1015,7 hPa 0,0 l/m 0 min 0 min 39 W/m 19,3 km/h (3 Bft) 100,00 %
26.04.2022 07:46 6,8 C 6,7 C 3,3 C 97 % 1015,8 hPa 0,0 l/m 0 min 0 min 46 W/m 12,9 km/h (3 Bft) 100,00 %
26.04.2022 07:48 6,8 C 6,7 C 3,3 C 97 % 1015,8 hPa 0,0 l/m 0 min 0 min 51 W/m 9,7 km/h (2 Bft) 100,00 %
26.04.2022 07:50 6,8 C 6,7 C 3,9 C 97 % 1015,8 hPa 0,0 l/m 0 min 0 min 55 W/m 12,9 km/h (3 Bft) 100,00 %
26.04.2022 07:52 6,9 C 6,7 C 3,9 C 97 % 1015,8 hPa 0,0 l/m 0 min 0 min 57 W/m 9,7 km/h (2 Bft) 97,87 %
26.04.2022 07:54 6,9 C 6,7 C 3,9 C 97 % 1015,8 hPa 0,0 l/m 0 min 0 min 60 W/m 19,3 km/h (3 Bft) 97,87 %
26.04.2022 07:56 6,9 C 6,7 C 3,9 C 97 % 1015,9 hPa 0,0 l/m 0 min 0 min 62 W/m 12,9 km/h (3 Bft) 97,83 %
26.04.2022 07:58 6,9 C 6,7 C 3,9 C 97 % 1015,9 hPa 0,0 l/m 0 min 0 min 60 W/m 12,9 km/h (3 Bft) 97,87 %
26.04.2022 08:00 6,9 C 6,7 C 3,9 C 97 % 1015,9 hPa 0,0 l/m 0 min 0 min 52 W/m 9,7 km/h (2 Bft) 97,87 %
26.04.2022 08:02 7,0 C 6,7 C 3,9 C 97 % 1016,0 hPa 0,0 l/m 0 min 0 min 49 W/m 6,4 km/h (2 Bft) 97,87 %
26.04.2022 08:04 7,0 C 6,7 C 3,9 C 97 % 1016,0 hPa 0,0 l/m 0 min 0 min 51 W/m 12,9 km/h (3 Bft) 97,87 %
26.04.2022 08:06 7,1 C 6,7 C 3,9 C 97 % 1015,9 hPa 0,0 l/m 0 min 0 min 52 W/m 9,7 km/h (2 Bft) 97,87 %
26.04.2022 08:08 7,0 C 6,7 C 3,9 C 97 % 1016,0 hPa 0,0 l/m 0 min 0 min 53 W/m 19,3 km/h (3 Bft) 97,83 %
26.04.2022 08:10 7,0 C 6,7 C 3,9 C 97 % 1016,0 hPa 0,0 l/m 0 min 0 min 55 W/m 9,7 km/h (2 Bft) 93,62 %
26.04.2022 08:12 7,1 C 6,7 C 3,9 C 97 % 1016,1 hPa 0,0 l/m 0 min 0 min 54 W/m 12,9 km/h (3 Bft) 95,74 %
26.04.2022 08:14 7,1 C 6,7 C 3,9 C 97 % 1016,1 hPa 0,0 l/m 0 min 0 min 52 W/m 9,7 km/h (2 Bft) 97,87 %
26.04.2022 08:16 7,1 C 6,7 C 3,9 C 97 % 1016,1 hPa 0,0 l/m 0 min 0 min 51 W/m 12,9 km/h (3 Bft) 97,87 %
26.04.2022 08:18 7,1 C 6,7 C 3,9 C 97 % 1016,1 hPa 0,0 l/m 0 min 0 min 53 W/m 9,7 km/h (2 Bft) 97,87 %
26.04.2022 08:20 7,1 C 6,7 C 3,9 C 97 % 1016,1 hPa 0,0 l/m 0 min 0 min 53 W/m 9,7 km/h (2 Bft) 97,83 %
26.04.2022 08:22 7,1 C 6,7 C 3,9 C 97 % 1016,2 hPa 0,0 l/m 0 min 0 min 53 W/m 6,4 km/h (2 Bft) 100,00 %
26.04.2022 08:24 7,1 C 6,7 C 3,9 C 97 % 1016,2 hPa 0,0 l/m 0 min 0 min 54 W/m 6,4 km/h (2 Bft) 100,00 %
26.04.2022 08:26 7,1 C 6,7 C 3,9 C 97 % 1016,1 hPa 0,0 l/m 0 min 0 min 53 W/m 9,7 km/h (2 Bft) 97,87 %
26.04.2022 08:28 7,1 C 6,7 C 3,9 C 97 % 1016,2 hPa 0,0 l/m 0 min 0 min 51 W/m 16,1 km/h (3 Bft) 100,00 %
26.04.2022 08:30 7,1 C 6,7 C 3,9 C 97 % 1016,1 hPa 0,0 l/m 0 min 0 min 51 W/m 12,9 km/h (3 Bft) 100,00 %
26.04.2022 08:32 7,1 C 6,7 C 3,9 C 97 % 1016,2 hPa 0,0 l/m 0 min 0 min 56 W/m 9,7 km/h (2 Bft) 100,00 %
26.04.2022 08:34 7,1 C 6,7 C 3,9 C 97 % 1016,2 hPa 0,0 l/m 0 min 0 min 63 W/m 12,9 km/h (3 Bft) 100,00 %
26.04.2022 08:36 7,1 C 6,7 C 3,9 C 97 % 1016,2 hPa 0,0 l/m 0 min 0 min 66 W/m 16,1 km/h (3 Bft) 95,74 %
26.04.2022 08:38 7,1 C 6,7 C 3,9 C 97 % 1016,2 hPa 0,0 l/m 0 min 0 min 74 W/m 12,9 km/h (3 Bft) 98,00 %
26.04.2022 08:40 7,1 C 7,2 C 3,9 C 97 % 1016,2 hPa 0,0 l/m 0 min 0 min 83 W/m 12,9 km/h (3 Bft) 97,87 %
26.04.2022 08:42 7,1 C 7,2 C 3,9 C 97 % 1016,2 hPa 0,0 l/m 0 min 0 min 88 W/m 9,7 km/h (2 Bft) 95,65 %
26.04.2022 08:44 7,1 C 7,2 C 3,9 C 97 % 1016,2 hPa 0,0 l/m 0 min 0 min 94 W/m 16,1 km/h (3 Bft) 97,87 %
26.04.2022 08:46 7,2 C 7,2 C 3,9 C 97 % 1016,2 hPa 0,0 l/m 0 min 0 min 96 W/m 16,1 km/h (3 Bft) 97,87 %
26.04.2022 08:48 7,2 C 7,2 C 3,9 C 97 % 1016,2 hPa 0,0 l/m 0 min 0 min 108 W/m 16,1 km/h (3 Bft) 97,87 %
26.04.2022 08:50 7,2 C 7,2 C 4,4 C 97 % 1016,2 hPa 0,0 l/m 0 min 0 min 120 W/m 9,7 km/h (2 Bft) 97,87 %
26.04.2022 08:52 7,3 C 7,2 C 3,9 C 97 % 1016,2 hPa 0,0 l/m 0 min 0 min 132 W/m 9,7 km/h (2 Bft) 95,74 %
26.04.2022 08:54 7,3 C 7,8 C 4,4 C 97 % 1016,3 hPa 0,0 l/m 0 min 0 min 142 W/m 9,7 km/h (2 Bft) 95,65 %
26.04.2022 08:56 7,3 C 7,8 C 4,4 C 97 % 1016,3 hPa 0,0 l/m 0 min 0 min 142 W/m 6,4 km/h (2 Bft) 97,87 %
26.04.2022 08:58 7,4 C 7,8 C 4,4 C 97 % 1016,3 hPa 0,0 l/m 0 min 0 min 141 W/m 16,1 km/h (3 Bft) 97,87 %
26.04.2022 09:00 7,4 C 7,8 C 4,4 C 97 % 1016,4 hPa 0,0 l/m 0 min 0 min 144 W/m 22,5 km/h (4 Bft) 97,87 %
26.04.2022 09:02 7,4 C 7,8 C 3,9 C 97 % 1016,3 hPa 0,0 l/m 0 min 0 min 155 W/m 22,5 km/h (4 Bft) 95,74 %
26.04.2022 09:04 7,4 C 7,8 C 4,4 C 97 % 1016,3 hPa 0,0 l/m 0 min 0 min 178 W/m 6,4 km/h (2 Bft) 97,87 %
26.04.2022 09:06 7,5 C 7,8 C 4,4 C 97 % 1016,3 hPa 0,0 l/m 0 min 0 min 193 W/m 12,9 km/h (3 Bft) 97,83 %
26.04.2022 09:08 7,5 C 8,3 C 4,4 C 97 % 1016,3 hPa 0,0 l/m 0 min 0 min 204 W/m 16,1 km/h (3 Bft) 97,87 %
26.04.2022 09:10 7,6 C 8,3 C 4,4 C 96 % 1016,4 hPa 0,0 l/m 0 min 0 min 208 W/m 16,1 km/h (3 Bft) 97,87 %
26.04.2022 09:12 7,6 C 8,3 C 4,4 C 97 % 1016,3 hPa 0,0 l/m 0 min 0 min 208 W/m 16,1 km/h (3 Bft) 97,87 %
26.04.2022 09:14 7,7 C 8,3 C 4,4 C 97 % 1016,4 hPa 0,0 l/m 2 min 0 min 231 W/m 16,1 km/h (3 Bft) 97,87 %
26.04.2022 09:16 7,7 C 8,3 C 4,4 C 97 % 1016,4 hPa 0,0 l/m 2 min 0 min 267 W/m 19,3 km/h (3 Bft) 98,11 %
26.04.2022 09:18 7,8 C 8,3 C 4,4 C 96 % 1016,4 hPa 0,0 l/m 2 min 0 min 286 W/m 16,1 km/h (3 Bft) 94,74 %
26.04.2022 09:20 7,8 C 8,9 C 5,0 C 96 % 1016,4 hPa 0,0 l/m 2 min 0 min 279 W/m 12,9 km/h (3 Bft) 100,00 %
26.04.2022 09:22 7,9 C 8,9 C 5,0 C 97 % 1016,4 hPa 0,0 l/m 2 min 0 min 252 W/m 6,4 km/h (2 Bft) 100,00 %
26.04.2022 09:24 8,0 C 8,9 C 5,0 C 96 % 1016,5 hPa 0,0 l/m 0 min 0 min 206 W/m 12,9 km/h (3 Bft) 100,00 %
26.04.2022 09:26 8,1 C 9,4 C 5,0 C 96 % 1016,4 hPa 0,0 l/m 0 min 0 min 229 W/m 9,7 km/h (2 Bft) 100,00 %
26.04.2022 09:28 8,2 C 8,9 C 5,0 C 96 % 1016,4 hPa 0,0 l/m 2 min 0 min 238 W/m 19,3 km/h (3 Bft) 100,00 %
26.04.2022 09:30 8,2 C 9,4 C 5,0 C 96 % 1016,5 hPa 0,0 l/m 2 min 0 min 259 W/m 19,3 km/h (3 Bft) 100,00 %
26.04.2022 09:32 8,2 C 8,9 C 5,0 C 96 % 1016,5 hPa 0,0 l/m 2 min 0 min 249 W/m 25,7 km/h (4 Bft) 95,74 %
26.04.2022 09:34 8,3 C 8,9 C 5,0 C 96 % 1016,6 hPa 0,0 l/m 0 min 0 min 233 W/m 16,1 km/h (3 Bft) 97,96 %
26.04.2022 09:36 8,3 C 8,9 C 5,0 C 96 % 1016,5 hPa 0,0 l/m 0 min 0 min 204 W/m 12,9 km/h (3 Bft) 97,87 %
26.04.2022 09:38 8,3 C 8,9 C 5,0 C 96 % 1016,5 hPa 0,0 l/m 0 min 0 min 204 W/m 16,1 km/h (3 Bft) 97,87 %
26.04.2022 09:40 8,3 C 8,9 C 5,0 C 96 % 1016,5 hPa 0,0 l/m 0 min 0 min 158 W/m 16,1 km/h (3 Bft) 97,83 %
26.04.2022 09:42 8,4 C 8,9 C 5,0 C 95 % 1016,5 hPa 0,0 l/m 0 min 0 min 110 W/m 9,7 km/h (2 Bft) 96,30 %
26.04.2022 09:44 8,4 C 8,9 C 5,0 C 95 % 1016,6 hPa 0,0 l/m 0 min 0 min 147 W/m 12,9 km/h (3 Bft) 97,87 %
26.04.2022 09:46 8,4 C 8,9 C 5,0 C 95 % 1016,6 hPa 0,0 l/m 0 min 0 min 154 W/m 6,4 km/h (2 Bft) 97,87 %
26.04.2022 09:48 8,5 C 8,9 C 5,0 C 95 % 1016,6 hPa 0,0 l/m 0 min 0 min 167 W/m 6,4 km/h (2 Bft) 94,74 %
26.04.2022 09:50 8,6 C 9,4 C 5,6 C 95 % 1016,6 hPa 0,0 l/m 0 min 0 min 213 W/m 16,1 km/h (3 Bft) 95,74 %
26.04.2022 09:52 8,6 C 9,4 C 5,0 C 95 % 1016,6 hPa 0,0 l/m 0 min 0 min 218 W/m 19,3 km/h (3 Bft) 95,83 %
26.04.2022 09:54 8,7 C 9,4 C 5,6 C 95 % 1016,7 hPa 0,0 l/m 0 min 0 min 240 W/m 12,9 km/h (3 Bft) 95,74 %
26.04.2022 09:56 8,7 C 9,4 C 5,6 C 95 % 1016,6 hPa 0,0 l/m 2 min 0 min 285 W/m 22,5 km/h (4 Bft) 95,74 %
26.04.2022 09:58 8,8 C 9,4 C 6,1 C 95 % 1016,6 hPa 0,0 l/m 2 min 0 min 278 W/m 22,5 km/h (4 Bft) 95,83 %
26.04.2022 10:00 8,8 C 10,0 C 6,1 C 95 % 1016,7 hPa 0,0 l/m 0 min 0 min 257 W/m 22,5 km/h (4 Bft) 93,62 %
26.04.2022 10:02 8,8 C 10,0 C 6,1 C 95 % 1016,7 hPa 0,0 l/m 0 min 0 min 268 W/m 19,3 km/h (3 Bft) 95,65 %
26.04.2022 10:04 8,8 C 9,4 C 5,6 C 94 % 1016,7 hPa 0,0 l/m 0 min 0 min 240 W/m 16,1 km/h (3 Bft) 96,00 %
26.04.2022 10:06 8,8 C 9,4 C 6,1 C 94 % 1016,8 hPa 0,0 l/m 0 min 0 min 225 W/m 16,1 km/h (3 Bft) 95,74 %
26.04.2022 10:08 8,9 C 10,0 C 6,1 C 94 % 1016,8 hPa 0,0 l/m 0 min 0 min 231 W/m 12,9 km/h (3 Bft) 95,74 %
26.04.2022 10:10 9,0 C 10,0 C 6,1 C 94 % 1016,8 hPa 0,0 l/m 0 min 0 min 266 W/m 16,1 km/h (3 Bft) 95,74 %
26.04.2022 10:12 9,1 C 10,0 C 6,1 C 94 % 1016,8 hPa 0,0 l/m 0 min 0 min 222 W/m 16,1 km/h (3 Bft) 96,00 %
26.04.2022 10:14 9,1 C 10,0 C 6,1 C 94 % 1016,9 hPa 0,0 l/m 0 min 0 min 220 W/m 16,1 km/h (3 Bft) 94,59 %
26.04.2022 10:16 9,1 C 9,4 C 6,1 C 94 % 1016,9 hPa 0,0 l/m 0 min 0 min 205 W/m 16,1 km/h (3 Bft) 95,65 %
26.04.2022 10:18 9,2 C 9,4 C 6,1 C 94 % 1016,9 hPa 0,0 l/m 0 min 0 min 187 W/m 16,1 km/h (3 Bft) 94,44 %
26.04.2022 10:20 9,2 C 9,4 C 6,1 C 93 % 1017,0 hPa 0,0 l/m 0 min 0 min 202 W/m 12,9 km/h (3 Bft) 96,00 %
26.04.2022 10:22 9,2 C 9,4 C 6,1 C 93 % 1017,1 hPa 0,0 l/m 0 min 0 min 218 W/m 19,3 km/h (3 Bft) 100,00 %
26.04.2022 10:24 9,2 C 10,0 C 6,1 C 93 % 1017,1 hPa 0,0 l/m 0 min 0 min 230 W/m 12,9 km/h (3 Bft) 57,45 %
26.04.2022 10:26 9,2 C 10,0 C 6,1 C 93 % 1017,0 hPa 0,0 l/m 0 min 0 min 175 W/m 12,9 km/h (3 Bft) 100,00 %
26.04.2022 10:28 9,2 C 10,0 C 6,1 C 93 % 1017,1 hPa 0,0 l/m 0 min 0 min 160 W/m 22,5 km/h (4 Bft) 100,00 %
26.04.2022 10:30 9,2 C 9,4 C 6,1 C 93 % 1017,1 hPa 0,0 l/m 0 min 0 min 156 W/m 25,7 km/h (4 Bft) 97,87 %
26.04.2022 10:32 9,2 C 9,4 C 6,1 C 92 % 1017,1 hPa 0,0 l/m 0 min 0 min 152 W/m 16,1 km/h (3 Bft) 100,00 %
26.04.2022 10:34 9,2 C 9,4 C 6,1 C 92 % 1017,1 hPa 0,0 l/m 0 min 0 min 158 W/m 16,1 km/h (3 Bft) 100,00 %
26.04.2022 10:36 9,2 C 9,4 C 6,1 C 92 % 1017,1 hPa 0,0 l/m 0 min 0 min 171 W/m 16,1 km/h (3 Bft) 100,00 %
26.04.2022 10:38 9,2 C 9,4 C 6,1 C 92 % 1017,2 hPa 0,0 l/m 0 min 0 min 174 W/m 12,9 km/h (3 Bft) 100,00 %
26.04.2022 10:40 9,2 C 9,4 C 6,1 C 92 % 1017,1 hPa 0,0 l/m 0 min 0 min 188 W/m 19,3 km/h (3 Bft) 100,00 %
26.04.2022 10:42 9,2 C 9,4 C 6,1 C 92 % 1017,2 hPa 0,0 l/m 0 min 0 min 214 W/m 16,1 km/h (3 Bft) 95,74 %
26.04.2022 10:44 9,2 C 9,4 C 6,1 C 92 % 1017,2 hPa 0,0 l/m 0 min 0 min 222 W/m 12,9 km/h (3 Bft) 100,00 %
26.04.2022 10:46 9,2 C 9,4 C 6,1 C 92 % 1017,2 hPa 0,0 l/m 0 min 0 min 211 W/m 12,9 km/h (3 Bft) 100,00 %
26.04.2022 10:48 9,3 C 10,0 C 6,1 C 92 % 1017,2 hPa 0,0 l/m 0 min 0 min 234 W/m 16,1 km/h (3 Bft) 100,00 %
26.04.2022 10:50 9,4 C 10,0 C 6,7 C 92 % 1017,1 hPa 0,0 l/m 0 min 0 min 288 W/m 12,9 km/h (3 Bft) 100,00 %
26.04.2022 10:52 9,4 C 10,6 C 6,7 C 92 % 1017,1 hPa 0,0 l/m 0 min 0 min 290 W/m 22,5 km/h (4 Bft) 100,00 %
26.04.2022 10:54 9,5 C 10,6 C 6,7 C 92 % 1017,1 hPa 0,0 l/m 2 min 0 min 320 W/m 9,7 km/h (2 Bft) 100,00 %
26.04.2022 10:56 9,6 C 11,1 C 7,2 C 92 % 1017,1 hPa 0,0 l/m 2 min 0 min 390 W/m 19,3 km/h (3 Bft) 100,00 %
26.04.2022 10:58 9,7 C 11,1 C 7,2 C 92 % 1017,1 hPa 0,0 l/m 2 min 0 min 402 W/m 12,9 km/h (3 Bft) 100,00 %
26.04.2022 11:00 9,8 C 11,1 C 7,2 C 92 % 1017,1 hPa 0,0 l/m 0 min 0 min 279 W/m 19,3 km/h (3 Bft) 100,00 %
26.04.2022 11:02 9,9 C 11,1 C 7,2 C 92 % 1017,2 hPa 0,0 l/m 0 min 0 min 220 W/m 12,9 km/h (3 Bft) 100,00 %
26.04.2022 11:04 9,9 C 11,1 C 7,2 C 91 % 1017,2 hPa 0,0 l/m 0 min 0 min 248 W/m 22,5 km/h (4 Bft) 100,00 %
26.04.2022 11:06 9,9 C 10,6 C 7,2 C 91 % 1017,2 hPa 0,0 l/m 0 min 0 min 245 W/m 19,3 km/h (3 Bft) 100,00 %
26.04.2022 11:08 10,0 C 10,6 C 7,2 C 91 % 1017,3 hPa 0,0 l/m 0 min 0 min 231 W/m 22,5 km/h (4 Bft) 100,00 %
26.04.2022 11:10 10,0 C 10,6 C 6,7 C 90 % 1017,2 hPa 0,0 l/m 0 min 0 min 215 W/m 22,5 km/h (4 Bft) 100,00 %
26.04.2022 11:12 9,9 C 10,6 C 6,7 C 90 % 1017,3 hPa 0,0 l/m 0 min 0 min 217 W/m 9,7 km/h (2 Bft) 97,96 %
26.04.2022 11:14 10,0 C 10,6 C 7,2 C 90 % 1017,3 hPa 0,0 l/m 0 min 0 min 223 W/m 19,3 km/h (3 Bft) 97,96 %
26.04.2022 11:16 10,0 C 10,6 C 7,2 C 90 % 1017,3 hPa 0,0 l/m 0 min 0 min 272 W/m 22,5 km/h (4 Bft) 100,00 %
26.04.2022 11:18 10,1 C 10,6 C 7,2 C 90 % 1017,4 hPa 0,0 l/m 0 min 0 min 299 W/m 9,7 km/h (2 Bft) 100,00 %
26.04.2022 11:20 10,1 C 11,1 C 7,2 C 90 % 1017,4 hPa 0,0 l/m 0 min 0 min 297 W/m 19,3 km/h (3 Bft) 100,00 %
26.04.2022 11:22 10,1 C 11,1 C 7,8 C 90 % 1017,4 hPa 0,0 l/m 0 min 0 min 311 W/m 19,3 km/h (3 Bft) 98,00 %
26.04.2022 11:24 10,2 C 11,1 C 7,2 C 90 % 1017,4 hPa 0,0 l/m 0 min 0 min 251 W/m 16,1 km/h (3 Bft) 100,00 %
26.04.2022 11:26 10,2 C 11,1 C 7,2 C 90 % 1017,4 hPa 0,0 l/m 0 min 0 min 243 W/m 12,9 km/h (3 Bft) 100,00 %
26.04.2022 11:28 10,3 C 11,1 C 7,2 C 90 % 1017,5 hPa 0,0 l/m 0 min 0 min 242 W/m 12,9 km/h (3 Bft) 100,00 %
26.04.2022 11:30 10,3 C 11,1 C 7,2 C 90 % 1017,4 hPa 0,0 l/m 0 min 0 min 227 W/m 12,9 km/h (3 Bft) 100,00 %
26.04.2022 11:32 10,3 C 11,1 C 7,8 C 90 % 1017,4 hPa 0,0 l/m 0 min 0 min 215 W/m 12,9 km/h (3 Bft) 95,24 %
26.04.2022 11:34 10,4 C 11,1 C 7,8 C 90 % 1017,4 hPa 0,0 l/m 0 min 0 min 249 W/m 16,1 km/h (3 Bft) 97,87 %
26.04.2022 11:36 10,4 C 11,1 C 7,8 C 89 % 1017,5 hPa 0,0 l/m 0 min 0 min 281 W/m 19,3 km/h (3 Bft) 97,87 %
26.04.2022 11:38 10,5 C 11,7 C 7,8 C 89 % 1017,5 hPa 0,0 l/m 0 min 0 min 320 W/m 6,4 km/h (2 Bft) 97,96 %
26.04.2022 11:40 10,6 C 11,7 C 7,8 C 89 % 1017,5 hPa 0,0 l/m 0 min 0 min 295 W/m 9,7 km/h (2 Bft) 95,74 %
26.04.2022 11:42 10,6 C 11,7 C 8,3 C 89 % 1017,6 hPa 0,0 l/m 0 min 0 min 260 W/m 12,9 km/h (3 Bft) 97,96 %
26.04.2022 11:44 10,6 C 11,7 C 7,8 C 89 % 1017,6 hPa 0,0 l/m 0 min 0 min 255 W/m 25,7 km/h (4 Bft) 97,87 %
26.04.2022 11:46 10,7 C 11,7 C 7,8 C 89 % 1017,6 hPa 0,0 l/m 0 min 0 min 245 W/m 12,9 km/h (3 Bft) 97,83 %
26.04.2022 11:48 10,7 C 11,7 C 7,8 C 88 % 1017,6 hPa 0,0 l/m 0 min 0 min 251 W/m 25,7 km/h (4 Bft) 95,74 %
26.04.2022 11:50 10,7 C 11,7 C 7,8 C 88 % 1017,7 hPa 0,0 l/m 0 min 0 min 254 W/m 16,1 km/h (3 Bft) 97,62 %
26.04.2022 11:52 10,8 C 11,7 C 7,8 C 88 % 1017,6 hPa 0,0 l/m 0 min 0 min 173 W/m 9,7 km/h (2 Bft) 94,00 %
26.04.2022 11:54 10,8 C 11,7 C 7,8 C 88 % 1017,7 hPa 0,0 l/m 0 min 0 min 188 W/m 12,9 km/h (3 Bft) 95,92 %
26.04.2022 11:56 10,8 C 11,7 C 8,3 C 88 % 1017,7 hPa 0,0 l/m 0 min 0 min 234 W/m 12,9 km/h (3 Bft) 95,74 %
26.04.2022 11:58 10,8 C 11,7 C 8,3 C 87 % 1017,7 hPa 0,0 l/m 0 min 0 min 216 W/m 16,1 km/h (3 Bft) 95,74 %
26.04.2022 12:00 10,9 C 11,7 C 8,3 C 87 % 1017,8 hPa 0,0 l/m 0 min 0 min 311 W/m 16,1 km/h (3 Bft) 95,74 %
26.04.2022 12:02 10,9 C 11,7 C 8,3 C 87 % 1017,8 hPa 0,0 l/m 0 min 0 min 357 W/m 12,9 km/h (3 Bft) 95,74 %
26.04.2022 12:04 11,0 C 11,7 C 8,9 C 87 % 1017,8 hPa 0,0 l/m 0 min 0 min 331 W/m 9,7 km/h (2 Bft) 96,00 %
26.04.2022 12:08 11,1 C 12,2 C 8,9 C 87 % 1017,8 hPa 0,0 l/m 0 min 0 min 303 W/m 22,5 km/h (4 Bft) 94,62 %
26.04.2022 12:10 11,2 C 12,2 C 8,9 C 86 % 1017,8 hPa 0,0 l/m 0 min 0 min 258 W/m 12,9 km/h (3 Bft) 97,37 %
26.04.2022 12:12 11,2 C 11,7 C 8,9 C 86 % 1017,8 hPa 0,0 l/m 0 min 0 min 258 W/m 12,9 km/h (3 Bft) 95,65 %
26.04.2022 12:14 11,2 C 12,2 C 8,9 C 86 % 1017,9 hPa 0,0 l/m 0 min 0 min 272 W/m 16,1 km/h (3 Bft) 93,62 %
26.04.2022 12:16 11,3 C 12,2 C 8,9 C 86 % 1017,9 hPa 0,0 l/m 0 min 0 min 343 W/m 16,1 km/h (3 Bft) 93,62 %
26.04.2022 12:18 11,4 C 12,2 C 8,9 C 86 % 1017,9 hPa 0,0 l/m 0 min 0 min 314 W/m 19,3 km/h (3 Bft) 93,62 %
26.04.2022 12:20 11,4 C 12,2 C 8,9 C 86 % 1017,9 hPa 0,0 l/m 0 min 0 min 254 W/m 16,1 km/h (3 Bft) 92,59 %
26.04.2022 12:22 11,4 C 12,2 C 8,9 C 86 % 1017,9 hPa 0,0 l/m 0 min 0 min 251 W/m 9,7 km/h (2 Bft) 93,88 %
26.04.2022 12:24 11,5 C 12,2 C 8,9 C 86 % 1018,0 hPa 0,0 l/m 0 min 0 min 254 W/m 12,9 km/h (3 Bft) 86,49 %
26.04.2022 12:26 11,5 C 12,2 C 8,9 C 85 % 1018,0 hPa 0,0 l/m 0 min 0 min 264 W/m 16,1 km/h (3 Bft) 93,62 %
26.04.2022 12:28 11,6 C 12,2 C 8,9 C 85 % 1018,0 hPa 0,0 l/m 0 min 0 min 248 W/m 22,5 km/h (4 Bft) 95,74 %
26.04.2022 12:30 11,6 C 12,2 C 8,9 C 85 % 1018,0 hPa 0,0 l/m 0 min 0 min 251 W/m 19,3 km/h (3 Bft) 93,62 %
26.04.2022 12:32 11,6 C 12,2 C 8,9 C 85 % 1018,0 hPa 0,0 l/m 0 min 0 min 271 W/m 16,1 km/h (3 Bft) 98,15 %
26.04.2022 12:34 11,6 C 12,2 C 8,9 C 85 % 1018,0 hPa 0,0 l/m 0 min 0 min 269 W/m 9,7 km/h (2 Bft) 93,48 %
26.04.2022 12:36 11,7 C 12,2 C 8,9 C 85 % 1018,0 hPa 0,0 l/m 0 min 0 min 227 W/m 16,1 km/h (3 Bft) 98,00 %
26.04.2022 12:38 11,7 C 12,2 C 8,9 C 85 % 1018,0 hPa 0,0 l/m 0 min 0 min 206 W/m 12,9 km/h (3 Bft) 97,87 %
26.04.2022 12:40 11,7 C 12,2 C 8,9 C 84 % 1018,0 hPa 0,0 l/m 0 min 0 min 207 W/m 12,9 km/h (3 Bft) 93,62 %
26.04.2022 12:42 11,7 C 12,2 C 8,9 C 84 % 1018,1 hPa 0,0 l/m 0 min 0 min 200 W/m 16,1 km/h (3 Bft) 97,30 %
26.04.2022 12:44 11,7 C 12,2 C 8,9 C 83 % 1018,0 hPa 0,0 l/m 0 min 0 min 211 W/m 16,1 km/h (3 Bft) 97,87 %
26.04.2022 12:46 11,7 C 12,2 C 8,9 C 84 % 1018,1 hPa 0,0 l/m 0 min 0 min 282 W/m 19,3 km/h (3 Bft) 97,87 %
26.04.2022 12:48 11,7 C 12,2 C 8,9 C 84 % 1018,1 hPa 0,0 l/m 0 min 0 min 297 W/m 12,9 km/h (3 Bft) 98,11 %
26.04.2022 12:50 11,8 C 12,8 C 8,9 C 84 % 1018,2 hPa 0,0 l/m 0 min 0 min 316 W/m 16,1 km/h (3 Bft) 96,00 %
26.04.2022 12:52 11,8 C 12,8 C 8,9 C 84 % 1018,1 hPa 0,0 l/m 0 min 0 min 302 W/m 16,1 km/h (3 Bft) 97,30 %
26.04.2022 12:54 11,9 C 12,8 C 9,4 C 84 % 1018,1 hPa 0,0 l/m 0 min 0 min 331 W/m 9,7 km/h (2 Bft) 93,62 %
26.04.2022 12:56 11,9 C 13,3 C 9,4 C 84 % 1018,1 hPa 0,0 l/m 0 min 0 min 346 W/m 6,4 km/h (2 Bft) 98,15 %
26.04.2022 12:58 12,1 C 13,9 C 9,4 C 84 % 1018,1 hPa 0,0 l/m 0 min 0 min 365 W/m 12,9 km/h (3 Bft) 97,96 %
26.04.2022 13:00 12,1 C 13,9 C 10,0 C 83 % 1018,1 hPa 0,0 l/m 2 min 0 min 410 W/m 19,3 km/h (3 Bft) 100,00 %
26.04.2022 13:02 12,2 C 13,9 C 10,0 C 83 % 1018,0 hPa 0,0 l/m 2 min 0 min 433 W/m 9,7 km/h (2 Bft) 97,92 %
26.04.2022 13:04 12,4 C 14,4 C 10,6 C 83 % 1018,1 hPa 0,0 l/m 2 min 0 min 439 W/m 12,9 km/h (3 Bft) 100,00 %
26.04.2022 13:06 12,5 C 15,0 C 10,6 C 83 % 1018,2 hPa 0,0 l/m 2 min 0 min 488 W/m 12,9 km/h (3 Bft) 100,00 %
26.04.2022 13:08 12,7 C 15,0 C 10,6 C 82 % 1018,2 hPa 0,0 l/m 2 min 0 min 511 W/m 12,9 km/h (3 Bft) 100,00 %
26.04.2022 13:10 12,7 C 15,0 C 10,6 C 82 % 1018,2 hPa 0,0 l/m 2 min 0 min 457 W/m 35,4 km/h (5 Bft) 97,87 %
26.04.2022 13:12 12,8 C 15,0 C 11,1 C 80 % 1018,2 hPa 0,0 l/m 2 min 0 min 528 W/m 16,1 km/h (3 Bft) 100,00 %
26.04.2022 13:14 12,9 C 14,4 C 10,6 C 80 % 1018,2 hPa 0,0 l/m 2 min 0 min 555 W/m 12,9 km/h (3 Bft) 100,00 %
26.04.2022 13:16 13,0 C 14,4 C 10,6 C 79 % 1018,2 hPa 0,0 l/m 0 min 0 min 372 W/m 9,7 km/h (2 Bft) 100,00 %
26.04.2022 13:18 13,1 C 14,4 C 10,6 C 79 % 1018,2 hPa 0,0 l/m 0 min 0 min 275 W/m 12,9 km/h (3 Bft) 100,00 %
26.04.2022 13:20 13,1 C 13,9 C 10,6 C 79 % 1018,2 hPa 0,0 l/m 0 min 0 min 240 W/m 12,9 km/h (3 Bft) 100,00 %
26.04.2022 13:22 13,1 C 13,9 C 10,0 C 79 % 1018,2 hPa 0,0 l/m 0 min 0 min 216 W/m 9,7 km/h (2 Bft) 100,00 %
26.04.2022 13:24 13,1 C 13,9 C 10,0 C 79 % 1018,2 hPa 0,0 l/m 0 min 0 min 214 W/m 16,1 km/h (3 Bft) 100,00 %
26.04.2022 13:26 13,1 C 13,3 C 10,0 C 79 % 1018,3 hPa 0,0 l/m 0 min 0 min 228 W/m 16,1 km/h (3 Bft) 100,00 %
26.04.2022 13:28 13,1 C 13,3 C 10,0 C 79 % 1018,2 hPa 0,0 l/m 0 min 0 min 249 W/m 16,1 km/h (3 Bft) 97,87 %
26.04.2022 13:30 13,1 C 13,3 C 10,0 C 79 % 1018,2 hPa 0,0 l/m 0 min 0 min 250 W/m 16,1 km/h (3 Bft) 100,00 %
26.04.2022 13:32 13,1 C 13,3 C 10,0 C 79 % 1018,3 hPa 0,0 l/m 0 min 0 min 269 W/m 12,9 km/h (3 Bft) 100,00 %
26.04.2022 13:34 13,1 C 13,9 C 10,0 C 79 % 1018,3 hPa 0,0 l/m 0 min 0 min 336 W/m 16,1 km/h (3 Bft) 100,00 %
26.04.2022 13:36 13,1 C 13,9 C 10,0 C 79 % 1018,2 hPa 0,0 l/m 0 min 0 min 366 W/m 19,3 km/h (3 Bft) 100,00 %
26.04.2022 13:38 13,1 C 14,4 C 10,6 C 79 % 1018,3 hPa 0,0 l/m 0 min 0 min 379 W/m 9,7 km/h (2 Bft) 100,00 %
26.04.2022 13:40 13,2 C 14,4 C 10,6 C 79 % 1018,3 hPa 0,0 l/m 0 min 0 min 306 W/m 9,7 km/h (2 Bft) 97,87 %
26.04.2022 13:42 13,2 C 14,4 C 10,6 C 79 % 1018,3 hPa 0,0 l/m 0 min 0 min 280 W/m 9,7 km/h (2 Bft) 100,00 %
26.04.2022 13:44 13,2 C 14,4 C 10,6 C 78 % 1018,3 hPa 0,0 l/m 0 min 0 min 346 W/m 12,9 km/h (3 Bft) 100,00 %
26.04.2022 13:46 13,3 C 14,4 C 10,6 C 78 % 1018,3 hPa 0,0 l/m 0 min 0 min 242 W/m 19,3 km/h (3 Bft) 100,00 %
26.04.2022 13:48 13,3 C 13,9 C 10,0 C 78 % 1018,3 hPa 0,0 l/m 0 min 0 min 199 W/m 9,7 km/h (2 Bft) 100,00 %
26.04.2022 13:50 13,3 C 13,9 C 10,0 C 78 % 1018,3 hPa 0,0 l/m 0 min 0 min 191 W/m 12,9 km/h (3 Bft) 100,00 %
26.04.2022 13:52 13,3 C 14,4 C 10,0 C 78 % 1018,3 hPa 0,0 l/m 2 min 0 min 455 W/m 12,9 km/h (3 Bft) 97,37 %
26.04.2022 13:54 13,4 C 16,1 C 10,6 C 78 % 1018,3 hPa 0,0 l/m 2 min 0 min 857 W/m 12,9 km/h (3 Bft) 100,00 %
26.04.2022 13:56 13,6 C 16,7 C 10,6 C 78 % 1018,3 hPa 0,0 l/m 2 min 0 min 849 W/m 22,5 km/h (4 Bft) 100,00 %
26.04.2022 13:58 13,8 C 17,8 C 11,1 C 78 % 1018,4 hPa 0,0 l/m 2 min 0 min 863 W/m 12,9 km/h (3 Bft) 98,00 %
26.04.2022 14:00 14,0 C 18,3 C 11,1 C 77 % 1018,4 hPa 0,0 l/m 2 min 0 min 884 W/m 22,5 km/h (4 Bft) 97,37 %
26.04.2022 14:02 14,3 C 18,9 C 11,1 C 76 % 1018,4 hPa 0,0 l/m 2 min 0 min 875 W/m 19,3 km/h (3 Bft) 100,00 %
26.04.2022 14:04 14,3 C 18,9 C 11,1 C 75 % 1018,4 hPa 0,0 l/m 2 min 0 min 872 W/m 22,5 km/h (4 Bft) 100,00 %
26.04.2022 14:06 14,5 C 18,3 C 11,1 C 74 % 1018,4 hPa 0,0 l/m 2 min 0 min 848 W/m 16,1 km/h (3 Bft) 97,83 %
26.04.2022 14:08 14,7 C 18,9 C 11,7 C 74 % 1018,4 hPa 0,0 l/m 2 min 0 min 888 W/m 16,1 km/h (3 Bft) 97,87 %
26.04.2022 14:10 14,8 C 19,4 C 12,2 C 74 % 1018,3 hPa 0,0 l/m 2 min 0 min 920 W/m 16,1 km/h (3 Bft) 97,87 %
26.04.2022 14:12 14,9 C 18,3 C 11,7 C 74 % 1018,3 hPa 0,0 l/m 2 min 0 min 884 W/m 22,5 km/h (4 Bft) 97,87 %
26.04.2022 14:14 14,9 C 17,2 C 11,7 C 73 % 1018,3 hPa 0,0 l/m 0 min 0 min 311 W/m 25,7 km/h (4 Bft) 95,74 %
26.04.2022 14:16 15,0 C 17,8 C 11,7 C 73 % 1018,3 hPa 0,0 l/m 0 min 0 min 271 W/m 19,3 km/h (3 Bft) 97,37 %
26.04.2022 14:18 15,0 C 17,8 C 11,7 C 72 % 1018,3 hPa 0,0 l/m 2 min 0 min 884 W/m 29,0 km/h (5 Bft) 97,87 %
26.04.2022 14:20 15,0 C 17,8 C 11,7 C 71 % 1018,4 hPa 0,0 l/m 2 min 0 min 873 W/m 16,1 km/h (3 Bft) 97,83 %
26.04.2022 14:22 15,1 C 18,9 C 11,7 C 71 % 1018,2 hPa 0,0 l/m 2 min 0 min 874 W/m 19,3 km/h (3 Bft) 97,87 %
26.04.2022 14:24 15,1 C 18,9 C 11,7 C 71 % 1018,2 hPa 0,0 l/m 2 min 0 min 891 W/m 16,1 km/h (3 Bft) 95,74 %
26.04.2022 14:26 15,2 C 19,4 C 12,2 C 73 % 1018,3 hPa 0,0 l/m 2 min 0 min 944 W/m 16,1 km/h (3 Bft) 97,87 %
26.04.2022 14:28 15,3 C 18,9 C 12,2 C 71 % 1018,3 hPa 0,0 l/m 2 min 0 min 993 W/m 22,5 km/h (4 Bft) 98,21 %
26.04.2022 14:30 15,3 C 17,8 C 11,7 C 71 % 1018,2 hPa 0,0 l/m 0 min 0 min 328 W/m 16,1 km/h (3 Bft) 94,74 %
26.04.2022 14:32 15,3 C 16,7 C 11,7 C 71 % 1018,3 hPa 0,0 l/m 0 min 0 min 244 W/m 16,1 km/h (3 Bft) 97,83 %
26.04.2022 14:34 15,2 C 16,1 C 11,1 C 71 % 1018,2 hPa 0,0 l/m 0 min 0 min 221 W/m 9,7 km/h (2 Bft) 97,87 %
26.04.2022 14:36 15,2 C 16,1 C 11,1 C 71 % 1018,3 hPa 0,0 l/m 0 min 0 min 275 W/m 12,9 km/h (3 Bft) 97,87 %
26.04.2022 14:38 15,0 C 16,1 C 11,1 C 72 % 1018,3 hPa 0,0 l/m 0 min 0 min 352 W/m 19,3 km/h (3 Bft) 97,87 %
26.04.2022 14:40 14,9 C 16,1 C 11,1 C 72 % 1018,2 hPa 0,0 l/m 2 min 0 min 374 W/m 22,5 km/h (4 Bft) 97,87 %
26.04.2022 14:42 14,9 C 16,1 C 11,1 C 72 % 1018,3 hPa 0,0 l/m 0 min 0 min 304 W/m 25,7 km/h (4 Bft) 97,87 %
26.04.2022 14:44 14,8 C 15,6 C 10,6 C 71 % 1018,4 hPa 0,0 l/m 0 min 0 min 192 W/m 25,7 km/h (4 Bft) 97,83 %
26.04.2022 14:46 14,7 C 15,0 C 10,6 C 71 % 1018,3 hPa 0,0 l/m 0 min 0 min 205 W/m 32,2 km/h (5 Bft) 93,62 %
26.04.2022 14:48 14,6 C 14,4 C 10,6 C 72 % 1018,3 hPa 0,0 l/m 0 min 0 min 236 W/m 22,5 km/h (4 Bft) 97,87 %
26.04.2022 14:50 14,4 C 14,4 C 10,6 C 72 % 1018,3 hPa 0,0 l/m 0 min 0 min 254 W/m 16,1 km/h (3 Bft) 97,87 %
26.04.2022 14:52 14,4 C 14,4 C 10,6 C 73 % 1018,3 hPa 0,0 l/m 0 min 0 min 267 W/m 16,1 km/h (3 Bft) 97,87 %
26.04.2022 14:54 14,3 C 14,4 C 10,6 C 73 % 1018,3 hPa 0,0 l/m 0 min 0 min 318 W/m 29,0 km/h (5 Bft) 97,87 %
26.04.2022 14:56 14,3 C 15,6 C 10,6 C 73 % 1018,3 hPa 0,0 l/m 2 min 0 min 402 W/m 19,3 km/h (3 Bft) 95,65 %
26.04.2022 14:58 14,3 C 17,2 C 11,1 C 74 % 1018,3 hPa 0,0 l/m 2 min 0 min 841 W/m 29,0 km/h (5 Bft) 95,74 %
26.04.2022 15:00 14,6 C 18,3 C 11,1 C 74 % 1018,2 hPa 0,0 l/m 2 min 0 min 897 W/m 16,1 km/h (3 Bft) 97,87 %
26.04.2022 15:02 14,8 C 18,9 C 11,7 C 74 % 1018,3 hPa 0,0 l/m 2 min 0 min 938 W/m 16,1 km/h (3 Bft) 97,87 %
26.04.2022 15:04 15,0 C 19,4 C 12,2 C 73 % 1018,2 hPa 0,0 l/m 2 min 0 min 961 W/m 19,3 km/h (3 Bft) 95,74 %
26.04.2022 15:06 15,2 C 18,9 C 12,2 C 73 % 1018,3 hPa 0,0 l/m 2 min 0 min 963 W/m 22,5 km/h (4 Bft) 97,87 %
26.04.2022 15:08 15,3 C 17,8 C 11,7 C 71 % 1018,3 hPa 0,0 l/m 2 min 0 min 499 W/m 19,3 km/h (3 Bft) 97,83 %
26.04.2022 15:10 15,2 C 16,7 C 11,7 C 71 % 1018,3 hPa 0,0 l/m 0 min 0 min 298 W/m 19,3 km/h (3 Bft) 95,74 %
26.04.2022 15:12 15,2 C 16,1 C 11,7 C 71 % 1018,3 hPa 0,0 l/m 0 min 0 min 218 W/m 12,9 km/h (3 Bft) 93,62 %
26.04.2022 15:14 15,2 C 15,6 C 11,1 C 71 % 1018,2 hPa 0,0 l/m 0 min 0 min 227 W/m 19,3 km/h (3 Bft) 93,62 %
26.04.2022 15:16 15,1 C 16,1 C 11,1 C 71 % 1018,3 hPa 0,0 l/m 0 min 0 min 336 W/m 19,3 km/h (3 Bft) 95,74 %
26.04.2022 15:18 15,1 C 17,2 C 11,1 C 71 % 1018,3 hPa 0,0 l/m 2 min 0 min 734 W/m 25,7 km/h (4 Bft) 95,74 %
26.04.2022 15:20 15,2 C 17,8 C 11,7 C 71 % 1018,2 hPa 0,0 l/m 2 min 0 min 936 W/m 29,0 km/h (5 Bft) 95,65 %
26.04.2022 15:22 15,3 C 18,3 C 12,2 C 71 % 1018,3 hPa 0,0 l/m 2 min 0 min 889 W/m 19,3 km/h (3 Bft) 95,74 %
26.04.2022 15:24 15,4 C 18,9 C 12,2 C 71 % 1018,3 hPa 0,0 l/m 2 min 0 min 587 W/m 12,9 km/h (3 Bft) 95,74 %
26.04.2022 15:26 15,5 C 18,3 C 12,2 C 70 % 1018,3 hPa 0,0 l/m 2 min 0 min 445 W/m 32,2 km/h (5 Bft) 95,74 %
26.04.2022 15:28 15,6 C 17,8 C 11,7 C 69 % 1018,3 hPa 0,0 l/m 0 min 0 min 299 W/m 19,3 km/h (3 Bft) 95,74 %
26.04.2022 15:30 15,4 C 16,7 C 11,7 C 68 % 1018,5 hPa 0,0 l/m 0 min 0 min 234 W/m 32,2 km/h (5 Bft) 95,74 %
26.04.2022 15:32 15,3 C 15,6 C 11,1 C 69 % 1018,4 hPa 0,0 l/m 0 min 0 min 215 W/m 22,5 km/h (4 Bft) 95,65 %
26.04.2022 15:34 15,2 C 15,0 C 11,1 C 69 % 1018,4 hPa 0,0 l/m 0 min 0 min 208 W/m 22,5 km/h (4 Bft) 95,74 %
26.04.2022 15:36 15,0 C 14,4 C 10,6 C 69 % 1018,4 hPa 0,0 l/m 0 min 0 min 225 W/m 12,9 km/h (3 Bft) 97,87 %
26.04.2022 15:38 14,9 C 14,4 C 11,1 C 69 % 1018,4 hPa 0,0 l/m 0 min 0 min 252 W/m 22,5 km/h (4 Bft) 97,87 %
26.04.2022 15:40 14,8 C 15,0 C 11,1 C 70 % 1018,4 hPa 0,0 l/m 0 min 0 min 289 W/m 25,7 km/h (4 Bft) 97,87 %
26.04.2022 15:42 14,7 C 15,0 C 11,1 C 70 % 1018,4 hPa 0,0 l/m 0 min 0 min 280 W/m 16,1 km/h (3 Bft) 97,87 %
26.04.2022 15:44 14,6 C 15,0 C 11,1 C 70 % 1018,4 hPa 0,0 l/m 0 min 0 min 288 W/m 9,7 km/h (2 Bft) 93,48 %
26.04.2022 15:46 14,6 C 15,6 C 11,1 C 70 % 1018,4 hPa 0,0 l/m 0 min 0 min 336 W/m 19,3 km/h (3 Bft) 95,74 %
26.04.2022 15:48 14,7 C 15,6 C 11,1 C 71 % 1018,3 hPa 0,0 l/m 2 min 0 min 336 W/m 19,3 km/h (3 Bft) 97,87 %
26.04.2022 15:50 14,7 C 15,6 C 11,1 C 71 % 1018,4 hPa 0,0 l/m 0 min 0 min 328 W/m 25,7 km/h (4 Bft) 97,87 %
26.04.2022 15:52 14,7 C 15,6 C 11,1 C 71 % 1018,4 hPa 0,0 l/m 2 min 0 min 341 W/m 19,3 km/h (3 Bft) 97,87 %
26.04.2022 15:54 14,7 C 15,6 C 11,1 C 71 % 1018,4 hPa 0,0 l/m 0 min 0 min 308 W/m 22,5 km/h (4 Bft) 97,87 %
26.04.2022 15:56 14,7 C 15,6 C 11,1 C 71 % 1018,4 hPa 0,0 l/m 0 min 0 min 329 W/m 29,0 km/h (5 Bft) 97,83 %
26.04.2022 15:58 14,7 C 15,6 C 11,1 C 71 % 1018,4 hPa 0,0 l/m 2 min 0 min 337 W/m 32,2 km/h (5 Bft) 97,87 %
26.04.2022 16:00 14,7 C 16,1 C 11,1 C 70 % 1018,4 hPa 0,0 l/m 2 min 0 min 386 W/m 25,7 km/h (4 Bft) 97,87 %
26.04.2022 16:02 14,7 C 16,1 C 11,1 C 70 % 1018,4 hPa 0,0 l/m 2 min 0 min 354 W/m 22,5 km/h (4 Bft) 97,87 %
26.04.2022 16:04 14,7 C 15,6 C 11,1 C 69 % 1018,3 hPa 0,0 l/m 0 min 0 min 304 W/m 19,3 km/h (3 Bft) 95,74 %
26.04.2022 16:06 14,7 C 15,6 C 11,1 C 68 % 1018,4 hPa 0,0 l/m 0 min 0 min 299 W/m 22,5 km/h (4 Bft) 96,55 %
26.04.2022 16:08 14,7 C 15,6 C 11,1 C 69 % 1018,4 hPa 0,0 l/m 0 min 0 min 309 W/m 29,0 km/h (5 Bft) 97,14 %
26.04.2022 16:10 14,7 C 16,1 C 11,1 C 69 % 1018,3 hPa 0,0 l/m 2 min 0 min 378 W/m 16,1 km/h (3 Bft) 97,87 %
26.04.2022 16:12 14,7 C 17,2 C 11,1 C 70 % 1018,3 hPa 0,0 l/m 2 min 0 min 546 W/m 22,5 km/h (4 Bft) 97,87 %
26.04.2022 16:14 14,8 C 16,7 C 11,1 C 70 % 1018,5 hPa 0,0 l/m 2 min 0 min 395 W/m 22,5 km/h (4 Bft) 100,00 %
26.04.2022 16:16 14,8 C 16,7 C 11,1 C 68 % 1018,4 hPa 0,0 l/m 2 min 0 min 384 W/m 22,5 km/h (4 Bft) 100,00 %
26.04.2022 16:18 14,8 C 16,1 C 11,1 C 68 % 1018,5 hPa 0,0 l/m 2 min 0 min 407 W/m 22,5 km/h (4 Bft) 100,00 %
26.04.2022 16:20 14,9 C 16,1 C 11,1 C 68 % 1018,5 hPa 0,0 l/m 2 min 0 min 362 W/m 22,5 km/h (4 Bft) 97,83 %
26.04.2022 16:22 14,8 C 15,6 C 11,1 C 67 % 1018,4 hPa 0,0 l/m 0 min 0 min 249 W/m 22,5 km/h (4 Bft) 97,87 %
26.04.2022 16:24 14,8 C 15,6 C 11,1 C 68 % 1018,5 hPa 0,0 l/m 0 min 0 min 241 W/m 19,3 km/h (3 Bft) 97,87 %
26.04.2022 16:26 14,8 C 15,0 C 11,1 C 68 % 1018,5 hPa 0,0 l/m 0 min 0 min 232 W/m 19,3 km/h (3 Bft) 97,87 %
26.04.2022 16:28 14,8 C 15,6 C 11,1 C 69 % 1018,5 hPa 0,0 l/m 0 min 0 min 221 W/m 29,0 km/h (5 Bft) 95,74 %
26.04.2022 16:30 14,8 C 15,6 C 10,6 C 69 % 1018,5 hPa 0,0 l/m 0 min 0 min 224 W/m 9,7 km/h (2 Bft) 97,87 %
26.04.2022 16:32 14,7 C 16,1 C 10,6 C 69 % 1018,5 hPa 0,0 l/m 0 min 0 min 280 W/m 22,5 km/h (4 Bft) 97,83 %
26.04.2022 16:34 14,7 C 16,7 C 11,1 C 69 % 1018,5 hPa 0,0 l/m 2 min 0 min 323 W/m 22,5 km/h (4 Bft) 97,87 %
26.04.2022 16:36 14,7 C 17,2 C 11,1 C 69 % 1018,5 hPa 0,0 l/m 2 min 0 min 322 W/m 25,7 km/h (4 Bft) 95,74 %
26.04.2022 16:38 14,8 C 16,7 C 11,1 C 69 % 1018,5 hPa 0,0 l/m 2 min 0 min 323 W/m 25,7 km/h (4 Bft) 95,74 %
26.04.2022 16:40 14,8 C 18,3 C 11,1 C 69 % 1018,5 hPa 0,0 l/m 2 min 0 min 520 W/m 25,7 km/h (4 Bft) 97,87 %
26.04.2022 16:42 14,9 C 20,0 C 11,7 C 68 % 1018,6 hPa 0,0 l/m 2 min 0 min 636 W/m 16,1 km/h (3 Bft) 97,83 %
26.04.2022 16:44 15,1 C 20,6 C 11,7 C 68 % 1018,5 hPa 0,0 l/m 2 min 0 min 636 W/m 16,1 km/h (3 Bft) 97,87 %
26.04.2022 16:46 15,2 C 20,6 C 11,7 C 68 % 1018,5 hPa 0,0 l/m 2 min 0 min 631 W/m 22,5 km/h (4 Bft) 100,00 %
26.04.2022 16:48 15,3 C 20,6 C 12,2 C 67 % 1018,6 hPa 0,0 l/m 2 min 0 min 610 W/m 19,3 km/h (3 Bft) 100,00 %
26.04.2022 16:50 15,4 C 20,6 C 12,2 C 67 % 1018,5 hPa 0,0 l/m 2 min 0 min 580 W/m 22,5 km/h (4 Bft) 97,87 %
26.04.2022 16:52 15,4 C 18,3 C 11,7 C 67 % 1018,6 hPa 0,0 l/m 2 min 0 min 379 W/m 19,3 km/h (3 Bft) 97,87 %
26.04.2022 16:54 15,4 C 18,9 C 11,7 C 67 % 1018,5 hPa 0,0 l/m 2 min 0 min 288 W/m 19,3 km/h (3 Bft) 97,83 %
26.04.2022 16:56 15,4 C 19,4 C 12,2 C 68 % 1018,5 hPa 0,0 l/m 2 min 0 min 640 W/m 16,1 km/h (3 Bft) 97,87 %
26.04.2022 16:58 15,6 C 19,4 C 12,2 C 67 % 1018,6 hPa 0,0 l/m 2 min 0 min 669 W/m 25,7 km/h (4 Bft) 100,00 %
26.04.2022 17:00 15,6 C 20,0 C 12,2 C 66 % 1018,6 hPa 0,0 l/m 2 min 0 min 689 W/m 32,2 km/h (5 Bft) 100,00 %
26.04.2022 17:02 15,7 C 18,9 C 12,8 C 65 % 1018,6 hPa 0,0 l/m 2 min 0 min 679 W/m 22,5 km/h (4 Bft) 97,87 %
26.04.2022 17:04 15,7 C 17,2 C 12,2 C 64 % 1018,6 hPa 0,0 l/m 2 min 0 min 412 W/m 32,2 km/h (5 Bft) 97,87 %
26.04.2022 17:06 15,6 C 17,8 C 11,7 C 65 % 1018,5 hPa 0,0 l/m 2 min 0 min 282 W/m 25,7 km/h (4 Bft) 100,00 %
26.04.2022 17:08 15,6 C 18,3 C 11,7 C 65 % 1018,6 hPa 0,0 l/m 2 min 0 min 649 W/m 19,3 km/h (3 Bft) 100,00 %
26.04.2022 17:10 15,5 C 19,4 C 12,2 C 65 % 1018,6 hPa 0,0 l/m 2 min 0 min 637 W/m 32,2 km/h (5 Bft) 100,00 %
26.04.2022 17:12 15,5 C 19,4 C 12,2 C 64 % 1018,6 hPa 0,0 l/m 2 min 0 min 614 W/m 22,5 km/h (4 Bft) 100,00 %
26.04.2022 17:14 15,6 C 19,4 C 12,2 C 65 % 1018,6 hPa 0,0 l/m 2 min 0 min 635 W/m 29,0 km/h (5 Bft) 100,00 %
26.04.2022 17:16 15,6 C 20,0 C 12,2 C 65 % 1018,6 hPa 0,0 l/m 2 min 0 min 649 W/m 25,7 km/h (4 Bft) 100,00 %
26.04.2022 17:18 15,7 C 20,6 C 12,2 C 65 % 1018,5 hPa 0,0 l/m 2 min 0 min 649 W/m 19,3 km/h (3 Bft) 100,00 %
26.04.2022 17:20 15,7 C 20,6 C 12,8 C 66 % 1018,5 hPa 0,0 l/m 2 min 0 min 633 W/m 25,7 km/h (4 Bft) 100,00 %
26.04.2022 17:22 15,8 C 20,6 C 12,8 C 65 % 1018,6 hPa 0,0 l/m 2 min 0 min 589 W/m 32,2 km/h (5 Bft) 100,00 %
26.04.2022 17:24 15,8 C 19,4 C 12,8 C 65 % 1018,6 hPa 0,0 l/m 2 min 0 min 550 W/m 41,8 km/h (6 Bft) 95,74 %
26.04.2022 17:26 15,8 C 20,0 C 12,8 C 65 % 1018,6 hPa 0,0 l/m 2 min 0 min 560 W/m 22,5 km/h (4 Bft) 97,87 %
26.04.2022 17:28 15,8 C 20,6 C 12,8 C 65 % 1018,5 hPa 0,0 l/m 2 min 0 min 577 W/m 22,5 km/h (4 Bft) 97,87 %
26.04.2022 17:30 15,9 C 20,0 C 12,8 C 65 % 1018,6 hPa 0,0 l/m 2 min 0 min 571 W/m 25,7 km/h (4 Bft) 97,83 %
26.04.2022 17:32 15,9 C 20,0 C 12,8 C 64 % 1018,7 hPa 0,0 l/m 2 min 0 min 526 W/m 38,6 km/h (5 Bft) 97,87 %
26.04.2022 17:34 15,9 C 20,0 C 12,8 C 64 % 1018,6 hPa 0,0 l/m 2 min 0 min 486 W/m 29,0 km/h (5 Bft) 95,74 %
26.04.2022 17:36 15,8 C 20,6 C 12,8 C 64 % 1018,6 hPa 0,0 l/m 2 min 0 min 488 W/m 22,5 km/h (4 Bft) 97,87 %
26.04.2022 17:38 15,8 C 20,6 C 12,8 C 64 % 1018,6 hPa 0,0 l/m 2 min 0 min 494 W/m 29,0 km/h (5 Bft) 97,87 %
26.04.2022 17:40 15,8 C 20,0 C 12,2 C 63 % 1018,7 hPa 0,0 l/m 2 min 0 min 479 W/m 16,1 km/h (3 Bft) 97,87 %
26.04.2022 17:42 15,8 C 20,0 C 12,8 C 62 % 1018,7 hPa 0,0 l/m 2 min 0 min 469 W/m 12,9 km/h (3 Bft) 97,83 %
26.04.2022 17:44 15,8 C 20,0 C 12,2 C 63 % 1018,8 hPa 0,0 l/m 2 min 0 min 442 W/m 22,5 km/h (4 Bft) 97,87 %
26.04.2022 17:46 15,7 C 20,0 C 12,2 C 64 % 1018,7 hPa 0,0 l/m 2 min 0 min 434 W/m 22,5 km/h (4 Bft) 95,74 %
26.04.2022 17:48 15,7 C 20,0 C 12,2 C 64 % 1018,7 hPa 0,0 l/m 2 min 0 min 411 W/m 19,3 km/h (3 Bft) 97,87 %
26.04.2022 17:50 15,7 C 19,4 C 12,2 C 63 % 1018,7 hPa 0,0 l/m 2 min 0 min 411 W/m 35,4 km/h (5 Bft) 95,74 %
26.04.2022 17:52 15,6 C 19,4 C 12,2 C 64 % 1018,7 hPa 0,0 l/m 2 min 0 min 407 W/m 22,5 km/h (4 Bft) 97,83 %
26.04.2022 17:54 15,6 C 20,0 C 12,2 C 64 % 1018,7 hPa 0,0 l/m 2 min 0 min 403 W/m 19,3 km/h (3 Bft) 97,87 %
26.04.2022 17:56 15,5 C 19,4 C 11,7 C 63 % 1018,7 hPa 0,0 l/m 2 min 0 min 399 W/m 16,1 km/h (3 Bft) 97,87 %
26.04.2022 17:58 15,6 C 20,0 C 12,2 C 64 % 1018,8 hPa 0,0 l/m 2 min 0 min 402 W/m 16,1 km/h (3 Bft) 97,87 %
26.04.2022 18:00 15,5 C 20,0 C 12,2 C 65 % 1018,8 hPa 0,0 l/m 2 min 0 min 400 W/m 16,1 km/h (3 Bft) 98,11 %
26.04.2022 18:02 15,6 C 20,6 C 12,2 C 65 % 1018,8 hPa 0,0 l/m 2 min 0 min 391 W/m 16,1 km/h (3 Bft) 97,56 %
26.04.2022 18:04 15,6 C 20,6 C 12,2 C 65 % 1018,8 hPa 0,0 l/m 2 min 0 min 382 W/m 19,3 km/h (3 Bft) 97,83 %
26.04.2022 18:08 15,6 C 18,9 C 12,2 C 65 % 1018,9 hPa 0,0 l/m 4 min 0 min 264 W/m 32,2 km/h (5 Bft) 98,00 %
26.04.2022 18:10 15,6 C 19,4 C 11,7 C 64 % 1018,8 hPa 0,0 l/m 2 min 0 min 367 W/m 25,7 km/h (4 Bft) 100,00 %
26.04.2022 18:12 15,6 C 19,4 C 12,2 C 65 % 1018,9 hPa 0,0 l/m 2 min 0 min 364 W/m 25,7 km/h (4 Bft) 100,00 %
26.04.2022 18:14 15,5 C 19,4 C 12,2 C 64 % 1018,9 hPa 0,0 l/m 2 min 0 min 356 W/m 22,5 km/h (4 Bft) 100,00 %
26.04.2022 18:16 15,4 C 19,4 C 11,7 C 64 % 1018,9 hPa 0,0 l/m 2 min 0 min 346 W/m 25,7 km/h (4 Bft) 95,12 %
26.04.2022 18:18 15,4 C 18,9 C 11,7 C 64 % 1018,9 hPa 0,0 l/m 2 min 0 min 338 W/m 32,2 km/h (5 Bft) 100,00 %
26.04.2022 18:20 15,4 C 19,4 C 11,7 C 63 % 1018,9 hPa 0,0 l/m 2 min 0 min 328 W/m 22,5 km/h (4 Bft) 100,00 %
26.04.2022 18:22 15,4 C 19,4 C 11,7 C 63 % 1018,9 hPa 0,0 l/m 2 min 0 min 322 W/m 29,0 km/h (5 Bft) 100,00 %
26.04.2022 18:24 15,3 C 18,9 C 11,7 C 63 % 1018,9 hPa 0,0 l/m 2 min 0 min 317 W/m 19,3 km/h (3 Bft) 100,00 %
26.04.2022 18:26 15,3 C 18,9 C 11,7 C 64 % 1018,9 hPa 0,0 l/m 2 min 0 min 313 W/m 22,5 km/h (4 Bft) 100,00 %
26.04.2022 18:28 15,2 C 18,9 C 11,7 C 64 % 1018,9 hPa 0,0 l/m 2 min 0 min 296 W/m 22,5 km/h (4 Bft) 97,83 %
26.04.2022 18:30 15,2 C 18,9 C 11,1 C 64 % 1018,9 hPa 0,0 l/m 2 min 0 min 293 W/m 12,9 km/h (3 Bft) 100,00 %
26.04.2022 18:32 15,2 C 18,9 C 11,1 C 64 % 1019,0 hPa 0,0 l/m 2 min 0 min 293 W/m 22,5 km/h (4 Bft) 100,00 %
26.04.2022 18:34 15,2 C 18,3 C 11,1 C 65 % 1019,0 hPa 0,0 l/m 2 min 0 min 294 W/m 29,0 km/h (5 Bft) 97,87 %
26.04.2022 18:36 15,1 C 17,8 C 11,1 C 65 % 1019,0 hPa 0,0 l/m 2 min 0 min 293 W/m 22,5 km/h (4 Bft) 98,11 %
26.04.2022 18:38 15,1 C 18,3 C 11,1 C 65 % 1019,0 hPa 0,0 l/m 2 min 0 min 293 W/m 19,3 km/h (3 Bft) 97,83 %
26.04.2022 18:40 15,1 C 18,3 C 10,6 C 65 % 1019,1 hPa 0,0 l/m 2 min 0 min 293 W/m 25,7 km/h (4 Bft) 97,87 %
26.04.2022 18:42 14,9 C 16,7 C 10,6 C 65 % 1019,1 hPa 0,0 l/m 2 min 0 min 289 W/m 29,0 km/h (5 Bft) 95,74 %
26.04.2022 18:44 14,9 C 15,6 C 10,6 C 66 % 1019,1 hPa 0,0 l/m 2 min 0 min 278 W/m 25,7 km/h (4 Bft) 95,74 %
26.04.2022 18:46 14,8 C 15,0 C 10,6 C 66 % 1019,1 hPa 0,0 l/m 2 min 0 min 277 W/m 22,5 km/h (4 Bft) 95,12 %
26.04.2022 18:48 14,8 C 15,0 C 10,6 C 66 % 1019,1 hPa 0,0 l/m 2 min 0 min 272 W/m 19,3 km/h (3 Bft) 94,34 %
26.04.2022 18:50 14,8 C 15,0 C 10,6 C 66 % 1019,1 hPa 0,0 l/m 2 min 0 min 264 W/m 16,1 km/h (3 Bft) 95,83 %
26.04.2022 18:52 14,7 C 14,4 C 10,6 C 66 % 1019,1 hPa 0,0 l/m 2 min 0 min 255 W/m 16,1 km/h (3 Bft) 95,74 %
26.04.2022 18:54 14,7 C 14,4 C 10,6 C 66 % 1019,1 hPa 0,0 l/m 2 min 0 min 239 W/m 29,0 km/h (5 Bft) 93,62 %
26.04.2022 18:56 14,7 C 14,4 C 10,6 C 66 % 1019,2 hPa 0,0 l/m 2 min 0 min 225 W/m 19,3 km/h (3 Bft) 95,74 %
26.04.2022 18:58 14,6 C 14,4 C 10,6 C 66 % 1019,1 hPa 0,0 l/m 2 min 0 min 196 W/m 22,5 km/h (4 Bft) 95,74 %
26.04.2022 19:00 14,6 C 14,4 C 10,6 C 67 % 1019,2 hPa 0,0 l/m 0 min 0 min 112 W/m 19,3 km/h (3 Bft) 97,83 %
26.04.2022 19:02 14,6 C 14,4 C 10,6 C 67 % 1019,2 hPa 0,0 l/m 0 min 0 min 83 W/m 12,9 km/h (3 Bft) 95,74 %
26.04.2022 19:04 14,5 C 14,4 C 10,6 C 67 % 1019,2 hPa 0,0 l/m 0 min 0 min 79 W/m 12,9 km/h (3 Bft) 95,74 %
26.04.2022 19:06 14,5 C 14,4 C 10,0 C 67 % 1019,2 hPa 0,0 l/m 0 min 0 min 76 W/m 16,1 km/h (3 Bft) 95,74 %
26.04.2022 19:08 14,4 C 13,9 C 10,0 C 65 % 1019,2 hPa 0,0 l/m 0 min 0 min 74 W/m 29,0 km/h (5 Bft) 95,74 %
26.04.2022 19:10 14,3 C 13,9 C 10,0 C 65 % 1019,2 hPa 0,0 l/m 0 min 0 min 74 W/m 12,9 km/h (3 Bft) 95,74 %
26.04.2022 19:12 14,3 C 13,9 C 10,0 C 65 % 1019,3 hPa 0,0 l/m 0 min 0 min 72 W/m 12,9 km/h (3 Bft) 93,48 %
26.04.2022 19:14 14,3 C 13,9 C 10,0 C 65 % 1019,3 hPa 0,0 l/m 0 min 0 min 71 W/m 19,3 km/h (3 Bft) 95,74 %
26.04.2022 19:16 14,3 C 13,9 C 10,0 C 65 % 1019,3 hPa 0,0 l/m 0 min 0 min 70 W/m 16,1 km/h (3 Bft) 93,62 %
26.04.2022 19:18 14,3 C 13,9 C 10,0 C 66 % 1019,3 hPa 0,0 l/m 0 min 0 min 69 W/m 16,1 km/h (3 Bft) 95,74 %
26.04.2022 19:20 14,3 C 13,9 C 10,0 C 67 % 1019,3 hPa 0,0 l/m 0 min 0 min 69 W/m 12,9 km/h (3 Bft) 95,74 %
26.04.2022 19:22 14,3 C 13,9 C 10,0 C 67 % 1019,3 hPa 0,0 l/m 0 min 0 min 69 W/m 12,9 km/h (3 Bft) 97,87 %
26.04.2022 19:24 14,2 C 13,9 C 10,0 C 67 % 1019,4 hPa 0,0 l/m 0 min 0 min 70 W/m 6,4 km/h (2 Bft) 97,83 %
26.04.2022 19:26 14,2 C 13,9 C 10,0 C 66 % 1019,3 hPa 0,0 l/m 0 min 0 min 68 W/m 19,3 km/h (3 Bft) 93,75 %
26.04.2022 19:28 14,1 C 13,3 C 10,0 C 67 % 1019,4 hPa 0,0 l/m 0 min 0 min 64 W/m 12,9 km/h (3 Bft) 100,00 %
26.04.2022 19:30 14,1 C 13,3 C 9,4 C 67 % 1019,4 hPa 0,0 l/m 0 min 0 min 62 W/m 12,9 km/h (3 Bft) 100,00 %
26.04.2022 19:32 14,1 C 13,3 C 9,4 C 67 % 1019,5 hPa 0,0 l/m 0 min 0 min 61 W/m 16,1 km/h (3 Bft) 100,00 %
26.04.2022 19:34 14,0 C 13,3 C 9,4 C 67 % 1019,5 hPa 0,0 l/m 0 min 0 min 59 W/m 9,7 km/h (2 Bft) 100,00 %
26.04.2022 19:36 14,0 C 13,3 C 9,4 C 68 % 1019,5 hPa 0,0 l/m 0 min 0 min 57 W/m 9,7 km/h (2 Bft) 100,00 %
26.04.2022 19:38 13,9 C 13,3 C 9,4 C 67 % 1019,5 hPa 0,0 l/m 0 min 0 min 54 W/m 16,1 km/h (3 Bft) 100,00 %
26.04.2022 19:40 13,9 C 13,3 C 9,4 C 67 % 1019,5 hPa 0,0 l/m 0 min 0 min 53 W/m 9,7 km/h (2 Bft) 97,87 %
26.04.2022 19:42 13,9 C 13,3 C 9,4 C 68 % 1019,5 hPa 0,0 l/m 0 min 0 min 52 W/m 12,9 km/h (3 Bft) 100,00 %
26.04.2022 19:44 13,8 C 13,3 C 9,4 C 68 % 1019,5 hPa 0,0 l/m 0 min 0 min 49 W/m 19,3 km/h (3 Bft) 100,00 %
26.04.2022 19:46 13,8 C 12,8 C 9,4 C 67 % 1019,5 hPa 0,0 l/m 0 min 0 min 49 W/m 16,1 km/h (3 Bft) 100,00 %
26.04.2022 19:48 13,7 C 12,8 C 9,4 C 67 % 1019,6 hPa 0,0 l/m 0 min 0 min 47 W/m 19,3 km/h (3 Bft) 100,00 %
26.04.2022 19:50 13,7 C 12,8 C 9,4 C 67 % 1019,6 hPa 0,0 l/m 0 min 0 min 46 W/m 16,1 km/h (3 Bft) 100,00 %
26.04.2022 19:52 13,7 C 12,8 C 9,4 C 67 % 1019,6 hPa 0,0 l/m 0 min 0 min 46 W/m 16,1 km/h (3 Bft) 100,00 %
26.04.2022 19:54 13,6 C 12,8 C 9,4 C 67 % 1019,7 hPa 0,0 l/m 0 min 0 min 44 W/m 16,1 km/h (3 Bft) 97,87 %
26.04.2022 19:56 13,6 C 12,8 C 9,4 C 67 % 1019,7 hPa 0,0 l/m 0 min 0 min 42 W/m 12,9 km/h (3 Bft) 100,00 %
26.04.2022 19:58 13,6 C 12,8 C 8,9 C 67 % 1019,7 hPa 0,0 l/m 0 min 0 min 40 W/m 22,5 km/h (4 Bft) 100,00 %
26.04.2022 20:00 13,5 C 12,8 C 8,9 C 67 % 1019,8 hPa 0,0 l/m 0 min 0 min 40 W/m 16,1 km/h (3 Bft) 100,00 %
26.04.2022 20:02 13,5 C 12,8 C 8,9 C 67 % 1019,7 hPa 0,0 l/m 0 min 0 min 39 W/m 12,9 km/h (3 Bft) 100,00 %
26.04.2022 20:04 13,4 C 12,8 C 8,9 C 67 % 1019,7 hPa 0,0 l/m 0 min 0 min 39 W/m 9,7 km/h (2 Bft) 97,87 %
26.04.2022 20:06 13,4 C 12,8 C 8,9 C 67 % 1019,7 hPa 0,0 l/m 0 min 0 min 37 W/m 12,9 km/h (3 Bft) 93,62 %
26.04.2022 20:08 13,4 C 12,2 C 8,9 C 67 % 1019,8 hPa 0,0 l/m 0 min 0 min 35 W/m 9,7 km/h (2 Bft) 97,87 %
26.04.2022 20:10 13,3 C 12,2 C 8,9 C 68 % 1019,8 hPa 0,0 l/m 0 min 0 min 35 W/m 6,4 km/h (2 Bft) 95,65 %
26.04.2022 20:12 13,3 C 12,2 C 8,9 C 68 % 1019,9 hPa 0,0 l/m 0 min 0 min 33 W/m 9,7 km/h (2 Bft) 97,87 %
26.04.2022 20:14 13,3 C 12,2 C 8,9 C 68 % 1019,8 hPa 0,0 l/m 0 min 0 min 33 W/m 12,9 km/h (3 Bft) 97,87 %
26.04.2022 20:16 13,3 C 12,2 C 8,9 C 68 % 1019,9 hPa 0,0 l/m 0 min 0 min 33 W/m 16,1 km/h (3 Bft) 97,87 %
26.04.2022 20:18 13,2 C 12,2 C 8,9 C 68 % 1019,9 hPa 0,0 l/m 2 min 0 min 33 W/m 12,9 km/h (3 Bft) 97,87 %
26.04.2022 20:20 13,2 C 12,2 C 8,9 C 68 % 1019,9 hPa 0,0 l/m 2 min 0 min 31 W/m 9,7 km/h (2 Bft) 97,87 %
26.04.2022 20:22 13,1 C 12,2 C 8,9 C 68 % 1020,0 hPa 0,0 l/m 2 min 0 min 28 W/m 6,4 km/h (2 Bft) 95,65 %
26.04.2022 20:24 13,1 C 12,2 C 8,3 C 69 % 1020,0 hPa 0,0 l/m 2 min 0 min 26 W/m 9,7 km/h (2 Bft) 97,87 %
26.04.2022 20:26 13,1 C 12,2 C 8,3 C 69 % 1020,0 hPa 0,0 l/m 2 min 0 min 23 W/m 6,4 km/h (2 Bft) 97,87 %
26.04.2022 20:28 13,1 C 12,2 C 8,3 C 70 % 1020,0 hPa 0,0 l/m 2 min 0 min 21 W/m 3,2 km/h (1 Bft) 97,87 %
26.04.2022 20:30 13,0 C 12,2 C 8,3 C 70 % 1020,1 hPa 0,0 l/m 0 min 0 min 18 W/m 9,7 km/h (2 Bft) 95,74 %
26.04.2022 20:32 13,0 C 12,2 C 8,3 C 70 % 1020,1 hPa 0,0 l/m 0 min 0 min 16 W/m 3,2 km/h (1 Bft) 97,87 %
26.04.2022 20:34 13,0 C 11,7 C 8,3 C 70 % 1020,1 hPa 0,0 l/m 0 min 0 min 14 W/m 6,4 km/h (2 Bft) 97,87 %
26.04.2022 20:36 13,0 C 11,7 C 8,3 C 70 % 1020,2 hPa 0,0 l/m 0 min 0 min 12 W/m 6,4 km/h (2 Bft) 97,87 %
26.04.2022 20:38 12,9 C 11,7 C 8,3 C 70 % 1020,2 hPa 0,0 l/m 0 min 0 min 12 W/m 6,4 km/h (2 Bft) 97,87 %
26.04.2022 20:40 12,9 C 11,7 C 8,3 C 71 % 1020,2 hPa 0,0 l/m 0 min 0 min 10 W/m 3,2 km/h (1 Bft) 95,74 %
26.04.2022 20:42 12,9 C 11,7 C 8,3 C 71 % 1020,3 hPa 0,0 l/m 0 min 0 min 9 W/m 6,4 km/h (2 Bft) 97,87 %
26.04.2022 20:44 12,9 C 11,7 C 7,8 C 71 % 1020,2 hPa 0,0 l/m 0 min 0 min 7 W/m 3,2 km/h (1 Bft) 95,65 %
26.04.2022 20:46 12,9 C 11,7 C 7,8 C 71 % 1020,3 hPa 0,0 l/m 0 min 0 min 7 W/m 6,4 km/h (2 Bft) 93,62 %
26.04.2022 20:48 12,8 C 11,7 C 7,8 C 72 % 1020,3 hPa 0,0 l/m 0 min 0 min 5 W/m 3,2 km/h (1 Bft) 93,62 %
26.04.2022 20:50 12,8 C 11,7 C 7,8 C 72 % 1020,3 hPa 0,0 l/m 0 min 0 min 5 W/m 9,7 km/h (2 Bft) 95,74 %
26.04.2022 20:52 12,8 C 11,7 C 7,8 C 72 % 1020,4 hPa 0,0 l/m 0 min 0 min 0 W/m 12,9 km/h (3 Bft) 93,62 %
26.04.2022 20:54 12,8 C 11,7 C 7,8 C 71 % 1020,5 hPa 0,0 l/m 0 min 0 min 0 W/m 9,7 km/h (2 Bft) 95,74 %
26.04.2022 20:56 12,7 C 11,1 C 7,8 C 71 % 1020,5 hPa 0,0 l/m 0 min 0 min 0 W/m 9,7 km/h (2 Bft) 95,65 %
26.04.2022 20:58 12,7 C 11,1 C 7,8 C 71 % 1020,5 hPa 0,0 l/m 0 min 0 min 0 W/m 12,9 km/h (3 Bft) 93,62 %
26.04.2022 21:00 12,6 C 11,7 C 7,8 C 71 % 1020,5 hPa 0,0 l/m 0 min 0 min 0 W/m 3,2 km/h (1 Bft) 95,74 %
26.04.2022 21:02 12,6 C 11,7 C 7,8 C 71 % 1020,6 hPa 0,0 l/m 0 min 0 min 0 W/m 6,4 km/h (2 Bft) 95,83 %
26.04.2022 21:04 12,6 C 11,1 C 7,8 C 71 % 1020,6 hPa 0,0 l/m 0 min 0 min 0 W/m 12,9 km/h (3 Bft) 93,62 %
26.04.2022 21:06 12,4 C 11,1 C 7,8 C 71 % 1020,6 hPa 0,0 l/m 0 min 0 min 0 W/m 9,7 km/h (2 Bft) 93,48 %
26.04.2022 21:08 12,4 C 11,1 C 7,8 C 71 % 1020,7 hPa 0,0 l/m 0 min 0 min 0 W/m 9,7 km/h (2 Bft) 95,74 %
26.04.2022 21:10 12,3 C 11,1 C 7,8 C 72 % 1020,7 hPa 0,0 l/m 0 min 0 min 0 W/m 6,4 km/h (2 Bft) 95,74 %
26.04.2022 21:12 12,3 C 11,1 C 7,8 C 72 % 1020,8 hPa 0,0 l/m 0 min 0 min 0 W/m 6,4 km/h (2 Bft) 93,62 %
26.04.2022 21:14 12,3 C 11,1 C 7,8 C 72 % 1020,8 hPa 0,0 l/m 0 min 0 min 0 W/m 9,7 km/h (2 Bft) 97,87 %
26.04.2022 21:16 12,2 C 11,1 C 7,2 C 72 % 1020,9 hPa 0,0 l/m 0 min 0 min 0 W/m 6,4 km/h (2 Bft) 97,87 %
26.04.2022 21:18 12,2 C 11,1 C 7,2 C 72 % 1020,9 hPa 0,0 l/m 0 min 0 min 0 W/m 9,7 km/h (2 Bft) 97,83 %
26.04.2022 21:20 12,1 C 11,1 C 7,2 C 72 % 1020,9 hPa 0,0 l/m 0 min 0 min 0 W/m 6,4 km/h (2 Bft) 97,87 %
26.04.2022 21:22 12,1 C 11,1 C 7,2 C 72 % 1021,0 hPa 0,0 l/m 0 min 0 min 0 W/m 9,7 km/h (2 Bft) 97,87 %
26.04.2022 21:24 12,1 C 10,6 C 7,2 C 73 % 1020,9 hPa 0,0 l/m 0 min 0 min 0 W/m 9,7 km/h (2 Bft) 97,87 %
26.04.2022 21:26 12,0 C 10,6 C 7,2 C 72 % 1021,0 hPa 0,0 l/m 0 min 0 min 0 W/m 9,7 km/h (2 Bft) 95,74 %
26.04.2022 21:28 11,9 C 10,6 C 7,2 C 73 % 1021,0 hPa 0,0 l/m 0 min 0 min 0 W/m 16,1 km/h (3 Bft) 97,87 %
26.04.2022 21:30 11,9 C 10,6 C 7,2 C 73 % 1021,1 hPa 0,0 l/m 0 min 0 min 0 W/m 12,9 km/h (3 Bft) 100,00 %
26.04.2022 21:32 11,8 C 10,6 C 7,2 C 73 % 1021,1 hPa 0,0 l/m 0 min 0 min 0 W/m 6,4 km/h (2 Bft) 100,00 %
26.04.2022 21:34 11,8 C 10,6 C 7,2 C 73 % 1021,1 hPa 0,0 l/m 0 min 0 min 0 W/m 9,7 km/h (2 Bft) 100,00 %
26.04.2022 21:36 11,7 C 10,6 C 7,2 C 73 % 1021,1 hPa 0,0 l/m 0 min 0 min 0 W/m 12,9 km/h (3 Bft) 100,00 %
26.04.2022 21:38 11,6 C 10,6 C 7,2 C 73 % 1021,1 hPa 0,0 l/m 0 min 0 min 0 W/m 9,7 km/h (2 Bft) 100,00 %
26.04.2022 21:40 11,6 C 10,6 C 7,2 C 73 % 1021,1 hPa 0,0 l/m 0 min 0 min 0 W/m 12,9 km/h (3 Bft) 100,00 %
26.04.2022 21:42 11,5 C 10,6 C 7,2 C 73 % 1021,2 hPa 0,0 l/m 0 min 0 min 0 W/m 19,3 km/h (3 Bft) 97,83 %
26.04.2022 21:44 11,4 C 10,6 C 7,2 C 73 % 1021,3 hPa 0,0 l/m 0 min 0 min 0 W/m 9,7 km/h (2 Bft) 100,00 %
26.04.2022 21:46 11,4 C 10,6 C 6,7 C 73 % 1021,2 hPa 0,0 l/m 0 min 0 min 0 W/m 12,9 km/h (3 Bft) 100,00 %
26.04.2022 21:48 11,3 C 10,0 C 6,7 C 73 % 1021,2 hPa 0,0 l/m 0 min 0 min 0 W/m 12,9 km/h (3 Bft) 100,00 %
26.04.2022 21:50 11,3 C 10,0 C 6,7 C 74 % 1021,3 hPa 0,0 l/m 0 min 0 min 0 W/m 6,4 km/h (2 Bft) 100,00 %
26.04.2022 21:52 11,2 C 10,0 C 6,7 C 74 % 1021,2 hPa 0,0 l/m 0 min 0 min 0 W/m 12,9 km/h (3 Bft) 97,87 %
26.04.2022 21:54 11,2 C 10,0 C 6,7 C 74 % 1021,3 hPa 0,0 l/m 0 min 0 min 0 W/m 6,4 km/h (2 Bft) 73,91 %
26.04.2022 21:56 11,1 C 10,0 C 6,7 C 74 % 1021,3 hPa 0,0 l/m 0 min 0 min 0 W/m 16,1 km/h (3 Bft) 80,43 %
26.04.2022 21:58 11,1 C 10,0 C 6,7 C 74 % 1021,3 hPa 0,0 l/m 0 min 0 min 0 W/m 9,7 km/h (2 Bft) 100,00 %
26.04.2022 22:00 11,0 C 10,0 C 6,1 C 74 % 1021,3 hPa 0,0 l/m 0 min 0 min 0 W/m 6,4 km/h (2 Bft) 100,00 %
26.04.2022 22:02 10,9 C 10,0 C 6,1 C 74 % 1021,4 hPa 0,0 l/m 0 min 0 min 0 W/m 6,4 km/h (2 Bft) 100,00 %
26.04.2022 22:04 10,9 C 10,0 C 6,1 C 74 % 1021,4 hPa 0,0 l/m 0 min 0 min 0 W/m 9,7 km/h (2 Bft) 100,00 %
26.04.2022 22:06 10,8 C 10,0 C 6,1 C 74 % 1021,4 hPa 0,0 l/m 0 min 0 min 0 W/m 16,1 km/h (3 Bft) 100,00 %
26.04.2022 22:08 10,8 C 10,0 C 6,1 C 74 % 1021,5 hPa 0,0 l/m 0 min 0 min 0 W/m 16,1 km/h (3 Bft) 100,00 %
26.04.2022 22:10 10,8 C 9,4 C 6,1 C 74 % 1021,5 hPa 0,0 l/m 0 min 0 min 0 W/m 12,9 km/h (3 Bft) 97,87 %
26.04.2022 22:12 10,7 C 9,4 C 6,1 C 74 % 1021,5 hPa 0,0 l/m 0 min 0 min 0 W/m 12,9 km/h (3 Bft) 100,00 %
26.04.2022 22:14 10,6 C 9,4 C 6,1 C 74 % 1021,5 hPa 0,0 l/m 0 min 0 min 0 W/m 9,7 km/h (2 Bft) 100,00 %
26.04.2022 22:16 10,6 C 9,4 C 6,1 C 74 % 1021,5 hPa 0,0 l/m 0 min 0 min 0 W/m 19,3 km/h (3 Bft) 100,00 %
26.04.2022 22:18 10,5 C 9,4 C 6,1 C 74 % 1021,6 hPa 0,0 l/m 0 min 0 min 0 W/m 19,3 km/h (3 Bft) 97,87 %
26.04.2022 22:20 10,4 C 9,4 C 6,1 C 74 % 1021,6 hPa 0,0 l/m 0 min 0 min 0 W/m 22,5 km/h (4 Bft) 100,00 %
26.04.2022 22:22 10,4 C 9,4 C 6,1 C 74 % 1021,5 hPa 0,0 l/m 0 min 0 min 0 W/m 19,3 km/h (3 Bft) 97,87 %
26.04.2022 22:24 10,3 C 9,4 C 6,1 C 74 % 1021,6 hPa 0,0 l/m 0 min 0 min 0 W/m 32,2 km/h (5 Bft) 100,00 %
26.04.2022 22:26 10,3 C 9,4 C 6,1 C 74 % 1021,6 hPa 0,0 l/m 0 min 0 min 0 W/m 12,9 km/h (3 Bft) 100,00 %
26.04.2022 22:28 10,3 C 9,4 C 6,1 C 74 % 1021,6 hPa 0,0 l/m 0 min 0 min 0 W/m 16,1 km/h (3 Bft) 97,83 %
26.04.2022 22:30 10,2 C 9,4 C 6,1 C 74 % 1021,6 hPa 0,0 l/m 0 min 0 min 0 W/m 19,3 km/h (3 Bft) 97,87 %
26.04.2022 22:32 10,2 C 9,4 C 6,1 C 74 % 1021,6 hPa 0,0 l/m 0 min 0 min 0 W/m 19,3 km/h (3 Bft) 97,92 %
26.04.2022 22:34 10,2 C 9,4 C 6,1 C 74 % 1021,6 hPa 0,0 l/m 0 min 0 min 0 W/m 25,7 km/h (4 Bft) 95,74 %
26.04.2022 22:36 10,2 C 9,4 C 6,1 C 74 % 1021,7 hPa 0,0 l/m 0 min 0 min 0 W/m 19,3 km/h (3 Bft) 97,87 %
26.04.2022 22:38 10,2 C 9,4 C 6,1 C 74 % 1021,7 hPa 0,0 l/m 0 min 0 min 0 W/m 19,3 km/h (3 Bft) 95,74 %
26.04.2022 22:40 10,1 C 9,4 C 5,6 C 74 % 1021,7 hPa 0,0 l/m 0 min 0 min 0 W/m 19,3 km/h (3 Bft) 97,87 %
26.04.2022 22:42 10,1 C 9,4 C 5,6 C 74 % 1021,7 hPa 0,0 l/m 0 min 0 min 0 W/m 9,7 km/h (2 Bft) 97,83 %
26.04.2022 22:44 10,1 C 9,4 C 5,6 C 75 % 1021,8 hPa 0,0 l/m 0 min 0 min 0 W/m 19,3 km/h (3 Bft) 97,87 %
26.04.2022 22:46 10,1 C 9,4 C 5,6 C 75 % 1021,8 hPa 0,0 l/m 0 min 0 min 0 W/m 12,9 km/h (3 Bft) 97,87 %
26.04.2022 22:48 10,0 C 9,4 C 5,6 C 75 % 1021,8 hPa 0,0 l/m 0 min 0 min 0 W/m 9,7 km/h (2 Bft) 97,87 %
26.04.2022 22:50 10,0 C 8,9 C 5,6 C 75 % 1021,8 hPa 0,0 l/m 0 min 0 min 0 W/m 12,9 km/h (3 Bft) 97,87 %
26.04.2022 22:52 9,9 C 9,4 C 5,6 C 75 % 1021,9 hPa 0,0 l/m 0 min 0 min 0 W/m 12,9 km/h (3 Bft) 97,83 %
26.04.2022 22:54 9,9 C 8,9 C 5,6 C 75 % 1021,8 hPa 0,0 l/m 0 min 0 min 0 W/m 19,3 km/h (3 Bft) 95,74 %
26.04.2022 22:56 9,9 C 8,9 C 5,6 C 75 % 1021,8 hPa 0,0 l/m 0 min 0 min 0 W/m 9,7 km/h (2 Bft) 97,87 %
26.04.2022 22:58 9,9 C 8,9 C 5,6 C 75 % 1021,8 hPa 0,0 l/m 0 min 0 min 0 W/m 16,1 km/h (3 Bft) 100,00 %
26.04.2022 23:00 9,8 C 8,9 C 5,6 C 75 % 1021,9 hPa 0,0 l/m 0 min 0 min 0 W/m 16,1 km/h (3 Bft) 100,00 %
26.04.2022 23:02 9,8 C 8,9 C 5,6 C 75 % 1021,9 hPa 0,0 l/m 0 min 0 min 0 W/m 22,5 km/h (4 Bft) 100,00 %
26.04.2022 23:04 9,8 C 8,9 C 5,6 C 75 % 1021,9 hPa 0,0 l/m 0 min 0 min 0 W/m 19,3 km/h (3 Bft) 97,87 %
26.04.2022 23:06 9,8 C 8,9 C 5,6 C 75 % 1022,0 hPa 0,0 l/m 0 min 0 min 0 W/m 12,9 km/h (3 Bft) 100,00 %
26.04.2022 23:08 9,8 C 8,9 C 5,6 C 75 % 1021,9 hPa 0,0 l/m 0 min 0 min 0 W/m 16,1 km/h (3 Bft) 100,00 %
26.04.2022 23:10 9,7 C 8,9 C 5,6 C 76 % 1022,0 hPa 0,0 l/m 0 min 0 min 0 W/m 16,1 km/h (3 Bft) 97,14 %
26.04.2022 23:12 9,7 C 8,9 C 5,6 C 76 % 1022,0 hPa 0,0 l/m 0 min 0 min 0 W/m 12,9 km/h (3 Bft) 97,87 %
26.04.2022 23:14 9,7 C 8,9 C 5,6 C 76 % 1022,0 hPa 0,0 l/m 0 min 0 min 0 W/m 12,9 km/h (3 Bft) 96,55 %
26.04.2022 23:16 9,7 C 8,9 C 5,6 C 76 % 1022,0 hPa 0,0 l/m 0 min 0 min 0 W/m 19,3 km/h (3 Bft) 100,00 %
26.04.2022 23:18 9,7 C 8,9 C 5,6 C 76 % 1022,0 hPa 0,0 l/m 0 min 0 min 0 W/m 16,1 km/h (3 Bft) 95,65 %
26.04.2022 23:20 9,6 C 8,9 C 5,6 C 76 % 1022,1 hPa 0,0 l/m 0 min 0 min 0 W/m 19,3 km/h (3 Bft) 95,74 %
26.04.2022 23:22 9,6 C 8,9 C 5,6 C 76 % 1022,1 hPa 0,0 l/m 0 min 0 min 0 W/m 9,7 km/h (2 Bft) 95,74 %
26.04.2022 23:24 9,6 C 8,9 C 5,6 C 76 % 1022,1 hPa 0,0 l/m 0 min 0 min 0 W/m 12,9 km/h (3 Bft) 95,74 %
26.04.2022 23:26 9,6 C 8,9 C 5,0 C 76 % 1022,1 hPa 0,0 l/m 0 min 0 min 0 W/m 12,9 km/h (3 Bft) 95,74 %
26.04.2022 23:28 9,5 C 8,9 C 5,0 C 76 % 1022,1 hPa 0,0 l/m 0 min 0 min 0 W/m 16,1 km/h (3 Bft) 95,65 %
26.04.2022 23:30 9,5 C 8,3 C 5,0 C 76 % 1022,1 hPa 0,0 l/m 0 min 0 min 0 W/m 6,4 km/h (2 Bft) 96,61 %
26.04.2022 23:32 9,4 C 8,3 C 5,0 C 77 % 1022,2 hPa 0,0 l/m 0 min 0 min 0 W/m 12,9 km/h (3 Bft) 94,44 %
26.04.2022 23:34 9,4 C 8,3 C 5,0 C 77 % 1022,1 hPa 0,0 l/m 0 min 0 min 0 W/m 12,9 km/h (3 Bft) 95,74 %
26.04.2022 23:36 9,4 C 8,3 C 5,0 C 77 % 1022,2 hPa 0,0 l/m 0 min 0 min 0 W/m 22,5 km/h (4 Bft) 93,62 %
26.04.2022 23:38 9,4 C 8,3 C 5,0 C 77 % 1022,2 hPa 0,0 l/m 0 min 0 min 0 W/m 12,9 km/h (3 Bft) 95,74 %
26.04.2022 23:40 9,3 C 8,3 C 5,0 C 77 % 1022,2 hPa 0,0 l/m 0 min 0 min 0 W/m 9,7 km/h (2 Bft) 95,65 %
26.04.2022 23:42 9,3 C 8,3 C 5,0 C 77 % 1022,2 hPa 0,0 l/m 0 min 0 min 0 W/m 9,7 km/h (2 Bft) 95,74 %
26.04.2022 23:44 9,3 C 8,3 C 5,0 C 77 % 1022,2 hPa 0,0 l/m 0 min 0 min 0 W/m 12,9 km/h (3 Bft) 95,74 %
26.04.2022 23:46 9,3 C 8,3 C 5,0 C 77 % 1022,2 hPa 0,0 l/m 0 min 0 min 0 W/m 9,7 km/h (2 Bft) 95,74 %
26.04.2022 23:48 9,3 C 8,3 C 5,0 C 77 % 1022,3 hPa 0,0 l/m 0 min 0 min 0 W/m 12,9 km/h (3 Bft) 95,74 %
26.04.2022 23:50 9,2 C 8,3 C 5,0 C 77 % 1022,2 hPa 0,0 l/m 0 min 0 min 0 W/m 12,9 km/h (3 Bft) 97,87 %
26.04.2022 23:52 9,2 C 8,3 C 5,0 C 77 % 1022,3 hPa 0,0 l/m 0 min 0 min 0 W/m 16,1 km/h (3 Bft) 97,83 %
26.04.2022 23:54 9,2 C 8,3 C 5,0 C 77 % 1022,2 hPa 0,0 l/m 0 min 0 min 0 W/m 9,7 km/h (2 Bft) 95,74 %
26.04.2022 23:56 9,2 C 8,3 C 5,0 C 77 % 1022,3 hPa 0,0 l/m 0 min 0 min 0 W/m 12,9 km/h (3 Bft) 95,74 %
26.04.2022 23:58 9,1 C 8,3 C 5,0 C 77 % 1022,3 hPa 0,0 l/m 0 min 0 min 0 W/m 16,1 km/h (3 Bft) 97,87 %
_ Min-Zeit 07:30 06:32 06:28 17:42 00:52 - - - - 00:32 07:26
Minimum _ 6,8 C 6,1 C 3,3 C 62 % 1014,2 hPa - - - - 0,0 km/h (0 Bft) 47,37 %
_ Max-Zeit 17:30 16:44 17:02 04:06 23:48 03:08 18:08 02:38 14:28 17:24 01:02
Maximum _ 15,9 C 20,6 C 12,8 C 98 % 1022,3 hPa 0,2 l/m 4 min 2 min 993 W/m 41,8 km/h
W-NW (6 Bft)
100,00 %
Durchschnitt _ 10,8 C 11,0 C 7,1 C 84 % 1017,4 hPa #4,4 l/m #4:42 h #2:28 h 267 W/m 13,6 km/h (3 Bft) 97,39 %
© 2022 W. Hausmann